<?xml version="1.0" encoding="UTF-8" standalone="no" ?>
<gpx xmlns="http://www.topografix.com/GPX/1/1" xmlns:xsi="http://www.w3.org/2001/XMLSchema-instance" xsi:schemaLocation="http://www.topografix.com/GPX/1/1 http://www.topografix.com/GPX/1/1/gpx.xsd" version="1.1" creator="VisuGPX - https://www.visugpx.com">
  <metadata>
    <name>Descente de Gland</name>
    <desc><![CDATA[Descente VTT Gorges de la Loire au Pertuiset]]></desc>
  </metadata>
  <trk>
    <name><![CDATA[Descente de Gland_1]]></name>
    <trkseg>
      <trkpt lat="45.40837" lon="4.24611">
        <ele>443.6</ele>
        <time>2021-06-15T12:58:30Z</time>
      </trkpt>
      <trkpt lat="45.40837" lon="4.24612">
        <ele>443.8</ele>
        <time>2021-06-15T12:58:32Z</time>
      </trkpt>
      <trkpt lat="45.40837" lon="4.2461">
        <ele>443.8</ele>
        <time>2021-06-15T12:58:33Z</time>
      </trkpt>
      <trkpt lat="45.40837" lon="4.24606">
        <ele>444.2</ele>
        <time>2021-06-15T12:58:35Z</time>
      </trkpt>
      <trkpt lat="45.40836" lon="4.24602">
        <ele>444</ele>
        <time>2021-06-15T12:58:38Z</time>
      </trkpt>
      <trkpt lat="45.40841" lon="4.24597">
        <ele>444.6</ele>
        <time>2021-06-15T12:58:42Z</time>
      </trkpt>
      <trkpt lat="45.40841" lon="4.24595">
        <ele>444.6</ele>
        <time>2021-06-15T12:58:43Z</time>
      </trkpt>
      <trkpt lat="45.4084" lon="4.24592">
        <ele>444.8</ele>
        <time>2021-06-15T12:58:44Z</time>
      </trkpt>
      <trkpt lat="45.40839" lon="4.24589">
        <ele>444.8</ele>
        <time>2021-06-15T12:58:45Z</time>
      </trkpt>
      <trkpt lat="45.40838" lon="4.24586">
        <ele>444.8</ele>
        <time>2021-06-15T12:58:46Z</time>
      </trkpt>
      <trkpt lat="45.40837" lon="4.24583">
        <ele>444.8</ele>
        <time>2021-06-15T12:58:47Z</time>
      </trkpt>
      <trkpt lat="45.40833" lon="4.24571">
        <ele>445.4</ele>
        <time>2021-06-15T12:58:51Z</time>
      </trkpt>
      <trkpt lat="45.40832" lon="4.24569">
        <ele>445.6</ele>
        <time>2021-06-15T12:58:52Z</time>
      </trkpt>
      <trkpt lat="45.40831" lon="4.24566">
        <ele>445.6</ele>
        <time>2021-06-15T12:58:53Z</time>
      </trkpt>
      <trkpt lat="45.40831" lon="4.24564">
        <ele>445.8</ele>
        <time>2021-06-15T12:58:54Z</time>
      </trkpt>
      <trkpt lat="45.40829" lon="4.24559">
        <ele>446</ele>
        <time>2021-06-15T12:58:56Z</time>
      </trkpt>
      <trkpt lat="45.40828" lon="4.24557">
        <ele>446</ele>
        <time>2021-06-15T12:58:57Z</time>
      </trkpt>
      <trkpt lat="45.40825" lon="4.2455">
        <ele>446.4</ele>
        <time>2021-06-15T12:59:00Z</time>
      </trkpt>
      <trkpt lat="45.40821" lon="4.24547">
        <ele>446.6</ele>
        <time>2021-06-15T12:59:02Z</time>
      </trkpt>
      <trkpt lat="45.40819" lon="4.24545">
        <ele>446.8</ele>
        <time>2021-06-15T12:59:03Z</time>
      </trkpt>
      <trkpt lat="45.40816" lon="4.2454">
        <ele>446.8</ele>
        <time>2021-06-15T12:59:05Z</time>
      </trkpt>
      <trkpt lat="45.40815" lon="4.24538">
        <ele>447</ele>
        <time>2021-06-15T12:59:06Z</time>
      </trkpt>
      <trkpt lat="45.40813" lon="4.24536">
        <ele>447</ele>
        <time>2021-06-15T12:59:07Z</time>
      </trkpt>
      <trkpt lat="45.4081" lon="4.24528">
        <ele>447.2</ele>
        <time>2021-06-15T12:59:10Z</time>
      </trkpt>
      <trkpt lat="45.40809" lon="4.24525">
        <ele>447.2</ele>
        <time>2021-06-15T12:59:11Z</time>
      </trkpt>
      <trkpt lat="45.40808" lon="4.24522">
        <ele>447.4</ele>
        <time>2021-06-15T12:59:12Z</time>
      </trkpt>
      <trkpt lat="45.40807" lon="4.2452">
        <ele>447.4</ele>
        <time>2021-06-15T12:59:13Z</time>
      </trkpt>
      <trkpt lat="45.40803" lon="4.24512">
        <ele>447.8</ele>
        <time>2021-06-15T12:59:16Z</time>
      </trkpt>
      <trkpt lat="45.40802" lon="4.24509">
        <ele>447.8</ele>
        <time>2021-06-15T12:59:17Z</time>
      </trkpt>
      <trkpt lat="45.408" lon="4.24505">
        <ele>448</ele>
        <time>2021-06-15T12:59:19Z</time>
      </trkpt>
      <trkpt lat="45.40795" lon="4.24493">
        <ele>448.2</ele>
        <time>2021-06-15T12:59:23Z</time>
      </trkpt>
      <trkpt lat="45.40791" lon="4.24482">
        <ele>448.6</ele>
        <time>2021-06-15T12:59:26Z</time>
      </trkpt>
      <trkpt lat="45.40789" lon="4.24479">
        <ele>449</ele>
        <time>2021-06-15T12:59:27Z</time>
      </trkpt>
      <trkpt lat="45.40787" lon="4.24472">
        <ele>449.4</ele>
        <time>2021-06-15T12:59:29Z</time>
      </trkpt>
      <trkpt lat="45.40781" lon="4.24457">
        <ele>450.2</ele>
        <time>2021-06-15T12:59:33Z</time>
      </trkpt>
      <trkpt lat="45.40773" lon="4.24438">
        <ele>451.2</ele>
        <time>2021-06-15T12:59:38Z</time>
      </trkpt>
      <trkpt lat="45.40767" lon="4.24425">
        <ele>451.6</ele>
        <time>2021-06-15T12:59:42Z</time>
      </trkpt>
      <trkpt lat="45.40765" lon="4.24422">
        <ele>451.6</ele>
        <time>2021-06-15T12:59:43Z</time>
      </trkpt>
      <trkpt lat="45.40755" lon="4.24408">
        <ele>452.4</ele>
        <time>2021-06-15T12:59:48Z</time>
      </trkpt>
      <trkpt lat="45.4075" lon="4.24399">
        <ele>452.8</ele>
        <time>2021-06-15T12:59:51Z</time>
      </trkpt>
      <trkpt lat="45.40749" lon="4.24395">
        <ele>452.8</ele>
        <time>2021-06-15T12:59:52Z</time>
      </trkpt>
      <trkpt lat="45.40747" lon="4.24393">
        <ele>453</ele>
        <time>2021-06-15T12:59:53Z</time>
      </trkpt>
      <trkpt lat="45.40743" lon="4.24386">
        <ele>453.4</ele>
        <time>2021-06-15T12:59:55Z</time>
      </trkpt>
      <trkpt lat="45.40735" lon="4.24373">
        <ele>454.6</ele>
        <time>2021-06-15T12:59:59Z</time>
      </trkpt>
      <trkpt lat="45.40728" lon="4.24362">
        <ele>455.2</ele>
        <time>2021-06-15T13:00:03Z</time>
      </trkpt>
      <trkpt lat="45.40721" lon="4.2435">
        <ele>455.6</ele>
        <time>2021-06-15T13:00:07Z</time>
      </trkpt>
      <trkpt lat="45.40709" lon="4.24332">
        <ele>456.8</ele>
        <time>2021-06-15T13:00:13Z</time>
      </trkpt>
      <trkpt lat="45.40699" lon="4.24316">
        <ele>457.8</ele>
        <time>2021-06-15T13:00:18Z</time>
      </trkpt>
      <trkpt lat="45.40691" lon="4.24299">
        <ele>458.8</ele>
        <time>2021-06-15T13:00:23Z</time>
      </trkpt>
      <trkpt lat="45.40688" lon="4.24293">
        <ele>459</ele>
        <time>2021-06-15T13:00:25Z</time>
      </trkpt>
      <trkpt lat="45.40675" lon="4.2427">
        <ele>460</ele>
        <time>2021-06-15T13:00:32Z</time>
      </trkpt>
      <trkpt lat="45.40673" lon="4.24267">
        <ele>460.2</ele>
        <time>2021-06-15T13:00:33Z</time>
      </trkpt>
      <trkpt lat="45.40665" lon="4.24255">
        <ele>460.8</ele>
        <time>2021-06-15T13:00:37Z</time>
      </trkpt>
      <trkpt lat="45.40663" lon="4.24252">
        <ele>461.2</ele>
        <time>2021-06-15T13:00:38Z</time>
      </trkpt>
      <trkpt lat="45.40656" lon="4.24241">
        <ele>462.4</ele>
        <time>2021-06-15T13:00:42Z</time>
      </trkpt>
      <trkpt lat="45.40655" lon="4.24238">
        <ele>462.6</ele>
        <time>2021-06-15T13:00:43Z</time>
      </trkpt>
      <trkpt lat="45.40649" lon="4.24228">
        <ele>463.4</ele>
        <time>2021-06-15T13:00:46Z</time>
      </trkpt>
      <trkpt lat="45.40643" lon="4.2422">
        <ele>464</ele>
        <time>2021-06-15T13:00:49Z</time>
      </trkpt>
      <trkpt lat="45.40637" lon="4.24206">
        <ele>464.4</ele>
        <time>2021-06-15T13:00:53Z</time>
      </trkpt>
      <trkpt lat="45.40625" lon="4.24181">
        <ele>465.6</ele>
        <time>2021-06-15T13:01:00Z</time>
      </trkpt>
      <trkpt lat="45.4062" lon="4.24171">
        <ele>466</ele>
        <time>2021-06-15T13:01:03Z</time>
      </trkpt>
      <trkpt lat="45.40615" lon="4.24166">
        <ele>466.6</ele>
        <time>2021-06-15T13:01:05Z</time>
      </trkpt>
      <trkpt lat="45.40603" lon="4.24146">
        <ele>467.8</ele>
        <time>2021-06-15T13:01:11Z</time>
      </trkpt>
      <trkpt lat="45.40599" lon="4.24139">
        <ele>468</ele>
        <time>2021-06-15T13:01:13Z</time>
      </trkpt>
      <trkpt lat="45.40591" lon="4.24116">
        <ele>468.8</ele>
        <time>2021-06-15T13:01:19Z</time>
      </trkpt>
      <trkpt lat="45.40587" lon="4.241">
        <ele>470</ele>
        <time>2021-06-15T13:01:23Z</time>
      </trkpt>
      <trkpt lat="45.40583" lon="4.24084">
        <ele>471</ele>
        <time>2021-06-15T13:01:27Z</time>
      </trkpt>
      <trkpt lat="45.40578" lon="4.24066">
        <ele>472</ele>
        <time>2021-06-15T13:01:32Z</time>
      </trkpt>
      <trkpt lat="45.40577" lon="4.24062">
        <ele>472.4</ele>
        <time>2021-06-15T13:01:33Z</time>
      </trkpt>
      <trkpt lat="45.40572" lon="4.24036">
        <ele>473.2</ele>
        <time>2021-06-15T13:01:40Z</time>
      </trkpt>
      <trkpt lat="45.4057" lon="4.24024">
        <ele>473.8</ele>
        <time>2021-06-15T13:01:43Z</time>
      </trkpt>
      <trkpt lat="45.40568" lon="4.24016">
        <ele>474.4</ele>
        <time>2021-06-15T13:01:45Z</time>
      </trkpt>
      <trkpt lat="45.40563" lon="4.23997">
        <ele>475.6</ele>
        <time>2021-06-15T13:01:50Z</time>
      </trkpt>
      <trkpt lat="45.40559" lon="4.23987">
        <ele>476.2</ele>
        <time>2021-06-15T13:01:53Z</time>
      </trkpt>
      <trkpt lat="45.40556" lon="4.23975">
        <ele>476.6</ele>
        <time>2021-06-15T13:01:56Z</time>
      </trkpt>
      <trkpt lat="45.40548" lon="4.2395">
        <ele>477.8</ele>
        <time>2021-06-15T13:02:03Z</time>
      </trkpt>
      <trkpt lat="45.40544" lon="4.23929">
        <ele>478.8</ele>
        <time>2021-06-15T13:02:08Z</time>
      </trkpt>
      <trkpt lat="45.40542" lon="4.23909">
        <ele>480</ele>
        <time>2021-06-15T13:02:13Z</time>
      </trkpt>
      <trkpt lat="45.40537" lon="4.23874">
        <ele>481</ele>
        <time>2021-06-15T13:02:22Z</time>
      </trkpt>
      <trkpt lat="45.40536" lon="4.2387">
        <ele>481.2</ele>
        <time>2021-06-15T13:02:23Z</time>
      </trkpt>
      <trkpt lat="45.40534" lon="4.23853">
        <ele>482</ele>
        <time>2021-06-15T13:02:27Z</time>
      </trkpt>
      <trkpt lat="45.40531" lon="4.23834">
        <ele>483</ele>
        <time>2021-06-15T13:02:32Z</time>
      </trkpt>
      <trkpt lat="45.4053" lon="4.2383">
        <ele>483.4</ele>
        <time>2021-06-15T13:02:33Z</time>
      </trkpt>
      <trkpt lat="45.40521" lon="4.23812">
        <ele>484.2</ele>
        <time>2021-06-15T13:02:38Z</time>
      </trkpt>
      <trkpt lat="45.40513" lon="4.23806">
        <ele>484.4</ele>
        <time>2021-06-15T13:02:41Z</time>
      </trkpt>
      <trkpt lat="45.40507" lon="4.23801">
        <ele>484.4</ele>
        <time>2021-06-15T13:02:43Z</time>
      </trkpt>
      <trkpt lat="45.40486" lon="4.23779">
        <ele>485.2</ele>
        <time>2021-06-15T13:02:51Z</time>
      </trkpt>
      <trkpt lat="45.40482" lon="4.23773">
        <ele>485.4</ele>
        <time>2021-06-15T13:02:53Z</time>
      </trkpt>
      <trkpt lat="45.40473" lon="4.2376">
        <ele>486.2</ele>
        <time>2021-06-15T13:02:57Z</time>
      </trkpt>
      <trkpt lat="45.4046" lon="4.23739">
        <ele>487.2</ele>
        <time>2021-06-15T13:03:03Z</time>
      </trkpt>
      <trkpt lat="45.40445" lon="4.23717">
        <ele>488.4</ele>
        <time>2021-06-15T13:03:10Z</time>
      </trkpt>
      <trkpt lat="45.4044" lon="4.23706">
        <ele>489.2</ele>
        <time>2021-06-15T13:03:13Z</time>
      </trkpt>
      <trkpt lat="45.40439" lon="4.23702">
        <ele>489.4</ele>
        <time>2021-06-15T13:03:14Z</time>
      </trkpt>
      <trkpt lat="45.40429" lon="4.23678">
        <ele>490.6</ele>
        <time>2021-06-15T13:03:20Z</time>
      </trkpt>
      <trkpt lat="45.40425" lon="4.23667">
        <ele>491.2</ele>
        <time>2021-06-15T13:03:23Z</time>
      </trkpt>
      <trkpt lat="45.40421" lon="4.23656">
        <ele>491.6</ele>
        <time>2021-06-15T13:03:26Z</time>
      </trkpt>
      <trkpt lat="45.40413" lon="4.23633">
        <ele>492.8</ele>
        <time>2021-06-15T13:03:32Z</time>
      </trkpt>
      <trkpt lat="45.40412" lon="4.23629">
        <ele>493</ele>
        <time>2021-06-15T13:03:33Z</time>
      </trkpt>
      <trkpt lat="45.40407" lon="4.23615">
        <ele>494</ele>
        <time>2021-06-15T13:03:37Z</time>
      </trkpt>
      <trkpt lat="45.404" lon="4.2359">
        <ele>494.8</ele>
        <time>2021-06-15T13:03:43Z</time>
      </trkpt>
      <trkpt lat="45.404" lon="4.23585">
        <ele>495</ele>
        <time>2021-06-15T13:03:44Z</time>
      </trkpt>
      <trkpt lat="45.40398" lon="4.2356">
        <ele>496.2</ele>
        <time>2021-06-15T13:03:50Z</time>
      </trkpt>
      <trkpt lat="45.40398" lon="4.23548">
        <ele>497</ele>
        <time>2021-06-15T13:03:53Z</time>
      </trkpt>
      <trkpt lat="45.404" lon="4.23539">
        <ele>497.4</ele>
        <time>2021-06-15T13:03:55Z</time>
      </trkpt>
      <trkpt lat="45.40402" lon="4.23521">
        <ele>498</ele>
        <time>2021-06-15T13:03:59Z</time>
      </trkpt>
      <trkpt lat="45.40403" lon="4.23508">
        <ele>498.6</ele>
        <time>2021-06-15T13:04:02Z</time>
      </trkpt>
      <trkpt lat="45.40403" lon="4.23503">
        <ele>498.8</ele>
        <time>2021-06-15T13:04:03Z</time>
      </trkpt>
      <trkpt lat="45.40406" lon="4.2348">
        <ele>499.6</ele>
        <time>2021-06-15T13:04:08Z</time>
      </trkpt>
      <trkpt lat="45.40407" lon="4.23454">
        <ele>500.4</ele>
        <time>2021-06-15T13:04:13Z</time>
      </trkpt>
      <trkpt lat="45.40409" lon="4.23441">
        <ele>500.8</ele>
        <time>2021-06-15T13:04:16Z</time>
      </trkpt>
      <trkpt lat="45.40414" lon="4.23418">
        <ele>501.8</ele>
        <time>2021-06-15T13:04:21Z</time>
      </trkpt>
      <trkpt lat="45.40414" lon="4.23409">
        <ele>502.2</ele>
        <time>2021-06-15T13:04:23Z</time>
      </trkpt>
      <trkpt lat="45.40415" lon="4.23395">
        <ele>503</ele>
        <time>2021-06-15T13:04:26Z</time>
      </trkpt>
      <trkpt lat="45.40407" lon="4.23362">
        <ele>504</ele>
        <time>2021-06-15T13:04:33Z</time>
      </trkpt>
      <trkpt lat="45.40405" lon="4.23358">
        <ele>504.2</ele>
        <time>2021-06-15T13:04:34Z</time>
      </trkpt>
      <trkpt lat="45.40395" lon="4.23345">
        <ele>505.2</ele>
        <time>2021-06-15T13:04:39Z</time>
      </trkpt>
      <trkpt lat="45.40382" lon="4.2334">
        <ele>506</ele>
        <time>2021-06-15T13:04:43Z</time>
      </trkpt>
      <trkpt lat="45.40376" lon="4.2334">
        <ele>506.2</ele>
        <time>2021-06-15T13:04:45Z</time>
      </trkpt>
      <trkpt lat="45.40347" lon="4.23332">
        <ele>507</ele>
        <time>2021-06-15T13:04:53Z</time>
      </trkpt>
      <trkpt lat="45.40337" lon="4.23326">
        <ele>507.2</ele>
        <time>2021-06-15T13:04:56Z</time>
      </trkpt>
      <trkpt lat="45.40321" lon="4.23313">
        <ele>508.4</ele>
        <time>2021-06-15T13:05:01Z</time>
      </trkpt>
      <trkpt lat="45.40315" lon="4.23308">
        <ele>508.6</ele>
        <time>2021-06-15T13:05:03Z</time>
      </trkpt>
      <trkpt lat="45.40304" lon="4.23298">
        <ele>509.4</ele>
        <time>2021-06-15T13:05:07Z</time>
      </trkpt>
      <trkpt lat="45.40293" lon="4.23287">
        <ele>510.6</ele>
        <time>2021-06-15T13:05:11Z</time>
      </trkpt>
      <trkpt lat="45.40288" lon="4.23282">
        <ele>511</ele>
        <time>2021-06-15T13:05:13Z</time>
      </trkpt>
      <trkpt lat="45.40279" lon="4.23274">
        <ele>511.6</ele>
        <time>2021-06-15T13:05:16Z</time>
      </trkpt>
      <trkpt lat="45.40268" lon="4.23264">
        <ele>512.4</ele>
        <time>2021-06-15T13:05:20Z</time>
      </trkpt>
      <trkpt lat="45.40265" lon="4.23261">
        <ele>512.6</ele>
        <time>2021-06-15T13:05:21Z</time>
      </trkpt>
      <trkpt lat="45.40259" lon="4.23257">
        <ele>513.2</ele>
        <time>2021-06-15T13:05:23Z</time>
      </trkpt>
      <trkpt lat="45.4025" lon="4.23251">
        <ele>513.6</ele>
        <time>2021-06-15T13:05:26Z</time>
      </trkpt>
      <trkpt lat="45.40234" lon="4.23235">
        <ele>514.8</ele>
        <time>2021-06-15T13:05:32Z</time>
      </trkpt>
      <trkpt lat="45.40233" lon="4.23231">
        <ele>515</ele>
        <time>2021-06-15T13:05:33Z</time>
      </trkpt>
      <trkpt lat="45.40232" lon="4.23223">
        <ele>515.6</ele>
        <time>2021-06-15T13:05:35Z</time>
      </trkpt>
      <trkpt lat="45.40233" lon="4.2322">
        <ele>515.8</ele>
        <time>2021-06-15T13:05:36Z</time>
      </trkpt>
      <trkpt lat="45.4024" lon="4.23213">
        <ele>517</ele>
        <time>2021-06-15T13:05:39Z</time>
      </trkpt>
      <trkpt lat="45.40249" lon="4.23212">
        <ele>518</ele>
        <time>2021-06-15T13:05:42Z</time>
      </trkpt>
      <trkpt lat="45.40252" lon="4.23212">
        <ele>518.2</ele>
        <time>2021-06-15T13:05:43Z</time>
      </trkpt>
      <trkpt lat="45.40262" lon="4.23211">
        <ele>518.6</ele>
        <time>2021-06-15T13:05:46Z</time>
      </trkpt>
      <trkpt lat="45.4027" lon="4.23211">
        <ele>519</ele>
        <time>2021-06-15T13:05:49Z</time>
      </trkpt>
      <trkpt lat="45.40284" lon="4.23212">
        <ele>519.6</ele>
        <time>2021-06-15T13:05:53Z</time>
      </trkpt>
      <trkpt lat="45.40291" lon="4.23212">
        <ele>520</ele>
        <time>2021-06-15T13:05:55Z</time>
      </trkpt>
      <trkpt lat="45.4031" lon="4.23211">
        <ele>521.2</ele>
        <time>2021-06-15T13:06:01Z</time>
      </trkpt>
      <trkpt lat="45.40317" lon="4.23211">
        <ele>521.6</ele>
        <time>2021-06-15T13:06:03Z</time>
      </trkpt>
      <trkpt lat="45.40324" lon="4.2321">
        <ele>522</ele>
        <time>2021-06-15T13:06:05Z</time>
      </trkpt>
      <trkpt lat="45.40331" lon="4.23209">
        <ele>522.4</ele>
        <time>2021-06-15T13:06:07Z</time>
      </trkpt>
      <trkpt lat="45.40351" lon="4.23205">
        <ele>523.4</ele>
        <time>2021-06-15T13:06:13Z</time>
      </trkpt>
      <trkpt lat="45.40367" lon="4.23202">
        <ele>524.6</ele>
        <time>2021-06-15T13:06:18Z</time>
      </trkpt>
      <trkpt lat="45.40373" lon="4.23201">
        <ele>525.2</ele>
        <time>2021-06-15T13:06:20Z</time>
      </trkpt>
      <trkpt lat="45.4038" lon="4.23202">
        <ele>525.8</ele>
        <time>2021-06-15T13:06:23Z</time>
      </trkpt>
      <trkpt lat="45.40397" lon="4.23209">
        <ele>527</ele>
        <time>2021-06-15T13:06:29Z</time>
      </trkpt>
      <trkpt lat="45.40402" lon="4.23213">
        <ele>527.4</ele>
        <time>2021-06-15T13:06:31Z</time>
      </trkpt>
      <trkpt lat="45.40407" lon="4.23217">
        <ele>528</ele>
        <time>2021-06-15T13:06:33Z</time>
      </trkpt>
      <trkpt lat="45.40417" lon="4.23225">
        <ele>529</ele>
        <time>2021-06-15T13:06:37Z</time>
      </trkpt>
      <trkpt lat="45.40428" lon="4.2323">
        <ele>530</ele>
        <time>2021-06-15T13:06:41Z</time>
      </trkpt>
      <trkpt lat="45.4043" lon="4.23231">
        <ele>530.2</ele>
        <time>2021-06-15T13:06:42Z</time>
      </trkpt>
      <trkpt lat="45.40433" lon="4.23232">
        <ele>530.4</ele>
        <time>2021-06-15T13:06:43Z</time>
      </trkpt>
      <trkpt lat="45.40452" lon="4.23234">
        <ele>531.2</ele>
        <time>2021-06-15T13:06:49Z</time>
      </trkpt>
      <trkpt lat="45.40464" lon="4.23234">
        <ele>532.2</ele>
        <time>2021-06-15T13:06:53Z</time>
      </trkpt>
      <trkpt lat="45.40467" lon="4.23233">
        <ele>532.2</ele>
        <time>2021-06-15T13:06:54Z</time>
      </trkpt>
      <trkpt lat="45.40487" lon="4.23232">
        <ele>533.4</ele>
        <time>2021-06-15T13:07:00Z</time>
      </trkpt>
      <trkpt lat="45.40495" lon="4.23235">
        <ele>533.8</ele>
        <time>2021-06-15T13:07:02Z</time>
      </trkpt>
      <trkpt lat="45.405" lon="4.23237">
        <ele>534</ele>
        <time>2021-06-15T13:07:03Z</time>
      </trkpt>
      <trkpt lat="45.40507" lon="4.23242">
        <ele>534.4</ele>
        <time>2021-06-15T13:07:05Z</time>
      </trkpt>
      <trkpt lat="45.40509" lon="4.23246">
        <ele>534.6</ele>
        <time>2021-06-15T13:07:06Z</time>
      </trkpt>
      <trkpt lat="45.40512" lon="4.23258">
        <ele>535.6</ele>
        <time>2021-06-15T13:07:09Z</time>
      </trkpt>
      <trkpt lat="45.40512" lon="4.23274">
        <ele>536.8</ele>
        <time>2021-06-15T13:07:13Z</time>
      </trkpt>
      <trkpt lat="45.40512" lon="4.23277">
        <ele>537.2</ele>
        <time>2021-06-15T13:07:14Z</time>
      </trkpt>
      <trkpt lat="45.40512" lon="4.23282">
        <ele>537.6</ele>
        <time>2021-06-15T13:07:15Z</time>
      </trkpt>
      <trkpt lat="45.40511" lon="4.23285">
        <ele>538</ele>
        <time>2021-06-15T13:07:16Z</time>
      </trkpt>
      <trkpt lat="45.40511" lon="4.23307">
        <ele>539</ele>
        <time>2021-06-15T13:07:21Z</time>
      </trkpt>
      <trkpt lat="45.40512" lon="4.23317">
        <ele>539.8</ele>
        <time>2021-06-15T13:07:23Z</time>
      </trkpt>
      <trkpt lat="45.40513" lon="4.23327">
        <ele>540.4</ele>
        <time>2021-06-15T13:07:25Z</time>
      </trkpt>
      <trkpt lat="45.40514" lon="4.23343">
        <ele>541</ele>
        <time>2021-06-15T13:07:28Z</time>
      </trkpt>
      <trkpt lat="45.40515" lon="4.23353">
        <ele>541.6</ele>
        <time>2021-06-15T13:07:30Z</time>
      </trkpt>
      <trkpt lat="45.40518" lon="4.23367">
        <ele>542.2</ele>
        <time>2021-06-15T13:07:33Z</time>
      </trkpt>
      <trkpt lat="45.4052" lon="4.23381">
        <ele>542.8</ele>
        <time>2021-06-15T13:07:36Z</time>
      </trkpt>
      <trkpt lat="45.40523" lon="4.23411">
        <ele>543.8</ele>
        <time>2021-06-15T13:07:42Z</time>
      </trkpt>
      <trkpt lat="45.40524" lon="4.23415">
        <ele>544</ele>
        <time>2021-06-15T13:07:43Z</time>
      </trkpt>
      <trkpt lat="45.40525" lon="4.23436">
        <ele>544.8</ele>
        <time>2021-06-15T13:07:47Z</time>
      </trkpt>
      <trkpt lat="45.40526" lon="4.23461">
        <ele>546</ele>
        <time>2021-06-15T13:07:52Z</time>
      </trkpt>
      <trkpt lat="45.40526" lon="4.23466">
        <ele>546.2</ele>
        <time>2021-06-15T13:07:53Z</time>
      </trkpt>
      <trkpt lat="45.40525" lon="4.2348">
        <ele>547</ele>
        <time>2021-06-15T13:07:56Z</time>
      </trkpt>
      <trkpt lat="45.40525" lon="4.23499">
        <ele>548.2</ele>
        <time>2021-06-15T13:08:00Z</time>
      </trkpt>
      <trkpt lat="45.40524" lon="4.23513">
        <ele>548.8</ele>
        <time>2021-06-15T13:08:03Z</time>
      </trkpt>
      <trkpt lat="45.40523" lon="4.23522">
        <ele>549.2</ele>
        <time>2021-06-15T13:08:05Z</time>
      </trkpt>
      <trkpt lat="45.40524" lon="4.23541">
        <ele>550.2</ele>
        <time>2021-06-15T13:08:09Z</time>
      </trkpt>
      <trkpt lat="45.40528" lon="4.23554">
        <ele>550.8</ele>
        <time>2021-06-15T13:08:12Z</time>
      </trkpt>
      <trkpt lat="45.40529" lon="4.23559">
        <ele>551</ele>
        <time>2021-06-15T13:08:13Z</time>
      </trkpt>
      <trkpt lat="45.40533" lon="4.23568">
        <ele>551.4</ele>
        <time>2021-06-15T13:08:15Z</time>
      </trkpt>
      <trkpt lat="45.40543" lon="4.23587">
        <ele>552.6</ele>
        <time>2021-06-15T13:08:20Z</time>
      </trkpt>
      <trkpt lat="45.40549" lon="4.23597">
        <ele>553</ele>
        <time>2021-06-15T13:08:23Z</time>
      </trkpt>
      <trkpt lat="45.40557" lon="4.23605">
        <ele>553.8</ele>
        <time>2021-06-15T13:08:26Z</time>
      </trkpt>
      <trkpt lat="45.4057" lon="4.23617">
        <ele>554.8</ele>
        <time>2021-06-15T13:08:31Z</time>
      </trkpt>
      <trkpt lat="45.40577" lon="4.23621">
        <ele>555.4</ele>
        <time>2021-06-15T13:08:33Z</time>
      </trkpt>
      <trkpt lat="45.40585" lon="4.23625">
        <ele>556</ele>
        <time>2021-06-15T13:08:36Z</time>
      </trkpt>
      <trkpt lat="45.40601" lon="4.23627">
        <ele>557.2</ele>
        <time>2021-06-15T13:08:41Z</time>
      </trkpt>
      <trkpt lat="45.40606" lon="4.23628">
        <ele>557.8</ele>
        <time>2021-06-15T13:08:43Z</time>
      </trkpt>
      <trkpt lat="45.40616" lon="4.23626">
        <ele>558.4</ele>
        <time>2021-06-15T13:08:46Z</time>
      </trkpt>
      <trkpt lat="45.40635" lon="4.2363">
        <ele>559.4</ele>
        <time>2021-06-15T13:08:51Z</time>
      </trkpt>
      <trkpt lat="45.40641" lon="4.23634">
        <ele>560</ele>
        <time>2021-06-15T13:08:53Z</time>
      </trkpt>
      <trkpt lat="45.40652" lon="4.23645">
        <ele>560.6</ele>
        <time>2021-06-15T13:08:56Z</time>
      </trkpt>
      <trkpt lat="45.40663" lon="4.23659">
        <ele>561.6</ele>
        <time>2021-06-15T13:09:00Z</time>
      </trkpt>
      <trkpt lat="45.4067" lon="4.23671">
        <ele>562.2</ele>
        <time>2021-06-15T13:09:03Z</time>
      </trkpt>
      <trkpt lat="45.40674" lon="4.2368">
        <ele>562.6</ele>
        <time>2021-06-15T13:09:05Z</time>
      </trkpt>
      <trkpt lat="45.4068" lon="4.23703">
        <ele>563.8</ele>
        <time>2021-06-15T13:09:10Z</time>
      </trkpt>
      <trkpt lat="45.40686" lon="4.23713">
        <ele>564.4</ele>
        <time>2021-06-15T13:09:13Z</time>
      </trkpt>
      <trkpt lat="45.40692" lon="4.23717">
        <ele>565</ele>
        <time>2021-06-15T13:09:15Z</time>
      </trkpt>
      <trkpt lat="45.40701" lon="4.23712">
        <ele>566.4</ele>
        <time>2021-06-15T13:09:19Z</time>
      </trkpt>
      <trkpt lat="45.40704" lon="4.23699">
        <ele>567.2</ele>
        <time>2021-06-15T13:09:23Z</time>
      </trkpt>
      <trkpt lat="45.40703" lon="4.23695">
        <ele>567.6</ele>
        <time>2021-06-15T13:09:24Z</time>
      </trkpt>
      <trkpt lat="45.40698" lon="4.23675">
        <ele>568.6</ele>
        <time>2021-06-15T13:09:29Z</time>
      </trkpt>
      <trkpt lat="45.40692" lon="4.23659">
        <ele>569.4</ele>
        <time>2021-06-15T13:09:33Z</time>
      </trkpt>
      <trkpt lat="45.4069" lon="4.23655">
        <ele>569.6</ele>
        <time>2021-06-15T13:09:34Z</time>
      </trkpt>
      <trkpt lat="45.40684" lon="4.23644">
        <ele>570.4</ele>
        <time>2021-06-15T13:09:37Z</time>
      </trkpt>
      <trkpt lat="45.4068" lon="4.23636">
        <ele>570.8</ele>
        <time>2021-06-15T13:09:39Z</time>
      </trkpt>
      <trkpt lat="45.40673" lon="4.23621">
        <ele>571.8</ele>
        <time>2021-06-15T13:09:43Z</time>
      </trkpt>
      <trkpt lat="45.40661" lon="4.23603">
        <ele>572.8</ele>
        <time>2021-06-15T13:09:49Z</time>
      </trkpt>
      <trkpt lat="45.40649" lon="4.23592">
        <ele>573.8</ele>
        <time>2021-06-15T13:09:53Z</time>
      </trkpt>
      <trkpt lat="45.40634" lon="4.23575">
        <ele>575</ele>
        <time>2021-06-15T13:09:59Z</time>
      </trkpt>
      <trkpt lat="45.40626" lon="4.23566">
        <ele>575.8</ele>
        <time>2021-06-15T13:10:02Z</time>
      </trkpt>
      <trkpt lat="45.40624" lon="4.23563">
        <ele>576</ele>
        <time>2021-06-15T13:10:03Z</time>
      </trkpt>
      <trkpt lat="45.40621" lon="4.2356">
        <ele>576.2</ele>
        <time>2021-06-15T13:10:04Z</time>
      </trkpt>
      <trkpt lat="45.40607" lon="4.23545">
        <ele>577.4</ele>
        <time>2021-06-15T13:10:10Z</time>
      </trkpt>
      <trkpt lat="45.40601" lon="4.23535">
        <ele>578</ele>
        <time>2021-06-15T13:10:13Z</time>
      </trkpt>
      <trkpt lat="45.40597" lon="4.2352">
        <ele>578.6</ele>
        <time>2021-06-15T13:10:16Z</time>
      </trkpt>
      <trkpt lat="45.40595" lon="4.23497">
        <ele>579.8</ele>
        <time>2021-06-15T13:10:21Z</time>
      </trkpt>
      <trkpt lat="45.40596" lon="4.23488">
        <ele>580.2</ele>
        <time>2021-06-15T13:10:23Z</time>
      </trkpt>
      <trkpt lat="45.40596" lon="4.23465">
        <ele>581</ele>
        <time>2021-06-15T13:10:28Z</time>
      </trkpt>
      <trkpt lat="45.40598" lon="4.23442">
        <ele>581.8</ele>
        <time>2021-06-15T13:10:33Z</time>
      </trkpt>
      <trkpt lat="45.40598" lon="4.23437">
        <ele>582</ele>
        <time>2021-06-15T13:10:34Z</time>
      </trkpt>
      <trkpt lat="45.406" lon="4.23416">
        <ele>583.2</ele>
        <time>2021-06-15T13:10:39Z</time>
      </trkpt>
      <trkpt lat="45.406" lon="4.23396">
        <ele>583.8</ele>
        <time>2021-06-15T13:10:43Z</time>
      </trkpt>
      <trkpt lat="45.406" lon="4.23387">
        <ele>584.2</ele>
        <time>2021-06-15T13:10:45Z</time>
      </trkpt>
      <trkpt lat="45.40601" lon="4.23363">
        <ele>585.4</ele>
        <time>2021-06-15T13:10:51Z</time>
      </trkpt>
      <trkpt lat="45.40602" lon="4.23356">
        <ele>586</ele>
        <time>2021-06-15T13:10:53Z</time>
      </trkpt>
      <trkpt lat="45.40603" lon="4.23349">
        <ele>586.4</ele>
        <time>2021-06-15T13:10:55Z</time>
      </trkpt>
      <trkpt lat="45.40611" lon="4.23319">
        <ele>587.8</ele>
        <time>2021-06-15T13:11:03Z</time>
      </trkpt>
      <trkpt lat="45.40617" lon="4.23299">
        <ele>588.8</ele>
        <time>2021-06-15T13:11:08Z</time>
      </trkpt>
      <trkpt lat="45.40624" lon="4.2328">
        <ele>589.6</ele>
        <time>2021-06-15T13:11:13Z</time>
      </trkpt>
      <trkpt lat="45.40625" lon="4.23276">
        <ele>589.8</ele>
        <time>2021-06-15T13:11:14Z</time>
      </trkpt>
      <trkpt lat="45.40631" lon="4.23258">
        <ele>591</ele>
        <time>2021-06-15T13:11:19Z</time>
      </trkpt>
      <trkpt lat="45.40637" lon="4.23244">
        <ele>591.6</ele>
        <time>2021-06-15T13:11:23Z</time>
      </trkpt>
      <trkpt lat="45.40638" lon="4.23236">
        <ele>592.2</ele>
        <time>2021-06-15T13:11:25Z</time>
      </trkpt>
      <trkpt lat="45.40644" lon="4.23212">
        <ele>593.4</ele>
        <time>2021-06-15T13:11:31Z</time>
      </trkpt>
      <trkpt lat="45.40646" lon="4.23205">
        <ele>593.8</ele>
        <time>2021-06-15T13:11:33Z</time>
      </trkpt>
      <trkpt lat="45.40649" lon="4.23194">
        <ele>594.6</ele>
        <time>2021-06-15T13:11:36Z</time>
      </trkpt>
      <trkpt lat="45.40659" lon="4.23173">
        <ele>595.6</ele>
        <time>2021-06-15T13:11:42Z</time>
      </trkpt>
      <trkpt lat="45.40661" lon="4.23169">
        <ele>596</ele>
        <time>2021-06-15T13:11:43Z</time>
      </trkpt>
      <trkpt lat="45.40664" lon="4.23153">
        <ele>596.6</ele>
        <time>2021-06-15T13:11:47Z</time>
      </trkpt>
      <trkpt lat="45.40667" lon="4.23129">
        <ele>597.8</ele>
        <time>2021-06-15T13:11:52Z</time>
      </trkpt>
      <trkpt lat="45.40668" lon="4.23124">
        <ele>598</ele>
        <time>2021-06-15T13:11:53Z</time>
      </trkpt>
      <trkpt lat="45.40666" lon="4.23107">
        <ele>599</ele>
        <time>2021-06-15T13:11:57Z</time>
      </trkpt>
      <trkpt lat="45.40658" lon="4.23082">
        <ele>599.8</ele>
        <time>2021-06-15T13:12:03Z</time>
      </trkpt>
      <trkpt lat="45.40656" lon="4.23078">
        <ele>600</ele>
        <time>2021-06-15T13:12:04Z</time>
      </trkpt>
      <trkpt lat="45.40652" lon="4.23064">
        <ele>600.4</ele>
        <time>2021-06-15T13:12:08Z</time>
      </trkpt>
      <trkpt lat="45.40647" lon="4.23051">
        <ele>601</ele>
        <time>2021-06-15T13:12:12Z</time>
      </trkpt>
      <trkpt lat="45.40645" lon="4.23047">
        <ele>601.2</ele>
        <time>2021-06-15T13:12:13Z</time>
      </trkpt>
      <trkpt lat="45.40637" lon="4.2303">
        <ele>602.2</ele>
        <time>2021-06-15T13:12:18Z</time>
      </trkpt>
      <trkpt lat="45.40635" lon="4.23025">
        <ele>602.6</ele>
        <time>2021-06-15T13:12:20Z</time>
      </trkpt>
      <trkpt lat="45.4063" lon="4.23017">
        <ele>603.4</ele>
        <time>2021-06-15T13:12:23Z</time>
      </trkpt>
      <trkpt lat="45.40617" lon="4.22998">
        <ele>604.4</ele>
        <time>2021-06-15T13:12:28Z</time>
      </trkpt>
      <trkpt lat="45.40604" lon="4.22984">
        <ele>605.2</ele>
        <time>2021-06-15T13:12:33Z</time>
      </trkpt>
      <trkpt lat="45.40601" lon="4.22982">
        <ele>605.4</ele>
        <time>2021-06-15T13:12:34Z</time>
      </trkpt>
      <trkpt lat="45.40588" lon="4.2298">
        <ele>606.4</ele>
        <time>2021-06-15T13:12:39Z</time>
      </trkpt>
      <trkpt lat="45.40578" lon="4.22979">
        <ele>607.4</ele>
        <time>2021-06-15T13:12:43Z</time>
      </trkpt>
      <trkpt lat="45.40576" lon="4.22979">
        <ele>607.6</ele>
        <time>2021-06-15T13:12:44Z</time>
      </trkpt>
      <trkpt lat="45.40559" lon="4.22976">
        <ele>608.6</ele>
        <time>2021-06-15T13:12:50Z</time>
      </trkpt>
      <trkpt lat="45.4055" lon="4.22976">
        <ele>609.2</ele>
        <time>2021-06-15T13:12:53Z</time>
      </trkpt>
      <trkpt lat="45.40541" lon="4.22974">
        <ele>609.8</ele>
        <time>2021-06-15T13:12:56Z</time>
      </trkpt>
      <trkpt lat="45.40524" lon="4.22966">
        <ele>611</ele>
        <time>2021-06-15T13:13:02Z</time>
      </trkpt>
      <trkpt lat="45.40521" lon="4.22964">
        <ele>611.4</ele>
        <time>2021-06-15T13:13:03Z</time>
      </trkpt>
      <trkpt lat="45.40508" lon="4.22957">
        <ele>612.2</ele>
        <time>2021-06-15T13:13:07Z</time>
      </trkpt>
      <trkpt lat="45.40494" lon="4.22942">
        <ele>613.4</ele>
        <time>2021-06-15T13:13:13Z</time>
      </trkpt>
      <trkpt lat="45.40489" lon="4.22921">
        <ele>614.6</ele>
        <time>2021-06-15T13:13:18Z</time>
      </trkpt>
      <trkpt lat="45.4049" lon="4.229">
        <ele>615.4</ele>
        <time>2021-06-15T13:13:23Z</time>
      </trkpt>
      <trkpt lat="45.40491" lon="4.22892">
        <ele>615.8</ele>
        <time>2021-06-15T13:13:25Z</time>
      </trkpt>
      <trkpt lat="45.40493" lon="4.22871">
        <ele>616.8</ele>
        <time>2021-06-15T13:13:30Z</time>
      </trkpt>
      <trkpt lat="45.40494" lon="4.22857">
        <ele>617.2</ele>
        <time>2021-06-15T13:13:33Z</time>
      </trkpt>
      <trkpt lat="45.40494" lon="4.2284">
        <ele>618</ele>
        <time>2021-06-15T13:13:37Z</time>
      </trkpt>
      <trkpt lat="45.40494" lon="4.22822">
        <ele>618.6</ele>
        <time>2021-06-15T13:13:41Z</time>
      </trkpt>
      <trkpt lat="45.40495" lon="4.22818">
        <ele>618.6</ele>
        <time>2021-06-15T13:13:42Z</time>
      </trkpt>
      <trkpt lat="45.40497" lon="4.22806">
        <ele>619</ele>
        <time>2021-06-15T13:13:45Z</time>
      </trkpt>
      <trkpt lat="45.40502" lon="4.22791">
        <ele>620.2</ele>
        <time>2021-06-15T13:13:49Z</time>
      </trkpt>
      <trkpt lat="45.40508" lon="4.22777">
        <ele>621.4</ele>
        <time>2021-06-15T13:13:53Z</time>
      </trkpt>
      <trkpt lat="45.40524" lon="4.22755">
        <ele>622.4</ele>
        <time>2021-06-15T13:14:00Z</time>
      </trkpt>
      <trkpt lat="45.40531" lon="4.22745">
        <ele>623.2</ele>
        <time>2021-06-15T13:14:03Z</time>
      </trkpt>
      <trkpt lat="45.40539" lon="4.22737">
        <ele>623.6</ele>
        <time>2021-06-15T13:14:06Z</time>
      </trkpt>
      <trkpt lat="45.40553" lon="4.22722">
        <ele>624.8</ele>
        <time>2021-06-15T13:14:12Z</time>
      </trkpt>
      <trkpt lat="45.40555" lon="4.2272">
        <ele>625.2</ele>
        <time>2021-06-15T13:14:13Z</time>
      </trkpt>
      <trkpt lat="45.4057" lon="4.22715">
        <ele>626</ele>
        <time>2021-06-15T13:14:18Z</time>
      </trkpt>
      <trkpt lat="45.40582" lon="4.22717">
        <ele>627</ele>
        <time>2021-06-15T13:14:23Z</time>
      </trkpt>
      <trkpt lat="45.406" lon="4.22719">
        <ele>628.2</ele>
        <time>2021-06-15T13:14:29Z</time>
      </trkpt>
      <trkpt lat="45.40613" lon="4.22718">
        <ele>628.8</ele>
        <time>2021-06-15T13:14:33Z</time>
      </trkpt>
      <trkpt lat="45.4062" lon="4.22716">
        <ele>629.2</ele>
        <time>2021-06-15T13:14:35Z</time>
      </trkpt>
      <trkpt lat="45.40639" lon="4.22705">
        <ele>630.2</ele>
        <time>2021-06-15T13:14:41Z</time>
      </trkpt>
      <trkpt lat="45.40643" lon="4.22699">
        <ele>630.8</ele>
        <time>2021-06-15T13:14:43Z</time>
      </trkpt>
      <trkpt lat="45.40649" lon="4.22686">
        <ele>631.4</ele>
        <time>2021-06-15T13:14:46Z</time>
      </trkpt>
      <trkpt lat="45.40657" lon="4.22667">
        <ele>632.4</ele>
        <time>2021-06-15T13:14:51Z</time>
      </trkpt>
      <trkpt lat="45.40659" lon="4.22664">
        <ele>632.6</ele>
        <time>2021-06-15T13:14:52Z</time>
      </trkpt>
      <trkpt lat="45.40661" lon="4.2266">
        <ele>632.8</ele>
        <time>2021-06-15T13:14:53Z</time>
      </trkpt>
      <trkpt lat="45.40673" lon="4.22645">
        <ele>633.8</ele>
        <time>2021-06-15T13:14:58Z</time>
      </trkpt>
      <trkpt lat="45.40683" lon="4.22634">
        <ele>634.4</ele>
        <time>2021-06-15T13:15:02Z</time>
      </trkpt>
      <trkpt lat="45.40685" lon="4.22631">
        <ele>634.6</ele>
        <time>2021-06-15T13:15:03Z</time>
      </trkpt>
      <trkpt lat="45.40689" lon="4.22625">
        <ele>634.8</ele>
        <time>2021-06-15T13:15:05Z</time>
      </trkpt>
      <trkpt lat="45.40697" lon="4.22608">
        <ele>635.8</ele>
        <time>2021-06-15T13:15:10Z</time>
      </trkpt>
      <trkpt lat="45.40699" lon="4.22597">
        <ele>636.4</ele>
        <time>2021-06-15T13:15:13Z</time>
      </trkpt>
      <trkpt lat="45.40698" lon="4.22583">
        <ele>637</ele>
        <time>2021-06-15T13:15:16Z</time>
      </trkpt>
      <trkpt lat="45.40694" lon="4.22561">
        <ele>638.2</ele>
        <time>2021-06-15T13:15:21Z</time>
      </trkpt>
      <trkpt lat="45.40691" lon="4.22554">
        <ele>638.4</ele>
        <time>2021-06-15T13:15:23Z</time>
      </trkpt>
      <trkpt lat="45.4068" lon="4.22531">
        <ele>639.2</ele>
        <time>2021-06-15T13:15:30Z</time>
      </trkpt>
      <trkpt lat="45.40674" lon="4.22521">
        <ele>639.8</ele>
        <time>2021-06-15T13:15:33Z</time>
      </trkpt>
      <trkpt lat="45.40663" lon="4.22508">
        <ele>640.4</ele>
        <time>2021-06-15T13:15:37Z</time>
      </trkpt>
      <trkpt lat="45.40649" lon="4.22496">
        <ele>641.4</ele>
        <time>2021-06-15T13:15:42Z</time>
      </trkpt>
      <trkpt lat="45.40646" lon="4.22494">
        <ele>641.6</ele>
        <time>2021-06-15T13:15:43Z</time>
      </trkpt>
      <trkpt lat="45.40637" lon="4.22482">
        <ele>642.6</ele>
        <time>2021-06-15T13:15:47Z</time>
      </trkpt>
      <trkpt lat="45.4063" lon="4.22462">
        <ele>643.8</ele>
        <time>2021-06-15T13:15:52Z</time>
      </trkpt>
      <trkpt lat="45.40629" lon="4.22458">
        <ele>644</ele>
        <time>2021-06-15T13:15:53Z</time>
      </trkpt>
      <trkpt lat="45.40627" lon="4.2245">
        <ele>644.8</ele>
        <time>2021-06-15T13:15:55Z</time>
      </trkpt>
      <trkpt lat="45.40624" lon="4.22428">
        <ele>645.8</ele>
        <time>2021-06-15T13:16:00Z</time>
      </trkpt>
      <trkpt lat="45.40624" lon="4.22414">
        <ele>646.2</ele>
        <time>2021-06-15T13:16:03Z</time>
      </trkpt>
      <trkpt lat="45.40624" lon="4.224">
        <ele>646.8</ele>
        <time>2021-06-15T13:16:06Z</time>
      </trkpt>
      <trkpt lat="45.40626" lon="4.2238">
        <ele>648</ele>
        <time>2021-06-15T13:16:11Z</time>
      </trkpt>
      <trkpt lat="45.40628" lon="4.22374">
        <ele>648.2</ele>
        <time>2021-06-15T13:16:13Z</time>
      </trkpt>
      <trkpt lat="45.40633" lon="4.22361">
        <ele>649</ele>
        <time>2021-06-15T13:16:17Z</time>
      </trkpt>
      <trkpt lat="45.40643" lon="4.22343">
        <ele>650.2</ele>
        <time>2021-06-15T13:16:23Z</time>
      </trkpt>
      <trkpt lat="45.40653" lon="4.22323">
        <ele>651.2</ele>
        <time>2021-06-15T13:16:29Z</time>
      </trkpt>
      <trkpt lat="45.40661" lon="4.22308">
        <ele>651.8</ele>
        <time>2021-06-15T13:16:33Z</time>
      </trkpt>
      <trkpt lat="45.40665" lon="4.22301">
        <ele>652.2</ele>
        <time>2021-06-15T13:16:35Z</time>
      </trkpt>
      <trkpt lat="45.40673" lon="4.22286">
        <ele>653</ele>
        <time>2021-06-15T13:16:39Z</time>
      </trkpt>
      <trkpt lat="45.40678" lon="4.22276">
        <ele>653.4</ele>
        <time>2021-06-15T13:16:42Z</time>
      </trkpt>
      <trkpt lat="45.4068" lon="4.22274">
        <ele>653.6</ele>
        <time>2021-06-15T13:16:43Z</time>
      </trkpt>
      <trkpt lat="45.40687" lon="4.22261">
        <ele>654.4</ele>
        <time>2021-06-15T13:16:47Z</time>
      </trkpt>
      <trkpt lat="45.40693" lon="4.22248">
        <ele>655.2</ele>
        <time>2021-06-15T13:16:51Z</time>
      </trkpt>
      <trkpt lat="45.40698" lon="4.22241">
        <ele>655.6</ele>
        <time>2021-06-15T13:16:53Z</time>
      </trkpt>
      <trkpt lat="45.40705" lon="4.22228">
        <ele>656.2</ele>
        <time>2021-06-15T13:16:57Z</time>
      </trkpt>
      <trkpt lat="45.40708" lon="4.22222">
        <ele>656.6</ele>
        <time>2021-06-15T13:16:59Z</time>
      </trkpt>
      <trkpt lat="45.4071" lon="4.22219">
        <ele>656.8</ele>
        <time>2021-06-15T13:17:00Z</time>
      </trkpt>
      <trkpt lat="45.40715" lon="4.22209">
        <ele>657.4</ele>
        <time>2021-06-15T13:17:03Z</time>
      </trkpt>
      <trkpt lat="45.40718" lon="4.22203">
        <ele>657.8</ele>
        <time>2021-06-15T13:17:05Z</time>
      </trkpt>
      <trkpt lat="45.40726" lon="4.2218">
        <ele>658.8</ele>
        <time>2021-06-15T13:17:11Z</time>
      </trkpt>
      <trkpt lat="45.4073" lon="4.22171">
        <ele>659.4</ele>
        <time>2021-06-15T13:17:13Z</time>
      </trkpt>
      <trkpt lat="45.40732" lon="4.22163">
        <ele>660</ele>
        <time>2021-06-15T13:17:15Z</time>
      </trkpt>
      <trkpt lat="45.40734" lon="4.22133">
        <ele>661.2</ele>
        <time>2021-06-15T13:17:22Z</time>
      </trkpt>
      <trkpt lat="45.40734" lon="4.2213">
        <ele>661.4</ele>
        <time>2021-06-15T13:17:23Z</time>
      </trkpt>
      <trkpt lat="45.40728" lon="4.22112">
        <ele>662.4</ele>
        <time>2021-06-15T13:17:28Z</time>
      </trkpt>
      <trkpt lat="45.4072" lon="4.22091">
        <ele>663</ele>
        <time>2021-06-15T13:17:33Z</time>
      </trkpt>
      <trkpt lat="45.40719" lon="4.22083">
        <ele>663.4</ele>
        <time>2021-06-15T13:17:35Z</time>
      </trkpt>
      <trkpt lat="45.40725" lon="4.22064">
        <ele>664.4</ele>
        <time>2021-06-15T13:17:40Z</time>
      </trkpt>
      <trkpt lat="45.40733" lon="4.22057">
        <ele>665</ele>
        <time>2021-06-15T13:17:43Z</time>
      </trkpt>
      <trkpt lat="45.40739" lon="4.22054">
        <ele>665.6</ele>
        <time>2021-06-15T13:17:45Z</time>
      </trkpt>
      <trkpt lat="45.40754" lon="4.22051">
        <ele>666.8</ele>
        <time>2021-06-15T13:17:50Z</time>
      </trkpt>
      <trkpt lat="45.40762" lon="4.22049">
        <ele>667.4</ele>
        <time>2021-06-15T13:17:53Z</time>
      </trkpt>
      <trkpt lat="45.40769" lon="4.22047">
        <ele>667.8</ele>
        <time>2021-06-15T13:17:56Z</time>
      </trkpt>
      <trkpt lat="45.40784" lon="4.22042">
        <ele>668.8</ele>
        <time>2021-06-15T13:18:01Z</time>
      </trkpt>
      <trkpt lat="45.40789" lon="4.2204">
        <ele>669.2</ele>
        <time>2021-06-15T13:18:03Z</time>
      </trkpt>
      <trkpt lat="45.408" lon="4.22034">
        <ele>670</ele>
        <time>2021-06-15T13:18:07Z</time>
      </trkpt>
      <trkpt lat="45.40819" lon="4.22022">
        <ele>671.2</ele>
        <time>2021-06-15T13:18:13Z</time>
      </trkpt>
      <trkpt lat="45.40824" lon="4.22018">
        <ele>671.8</ele>
        <time>2021-06-15T13:18:15Z</time>
      </trkpt>
      <trkpt lat="45.40833" lon="4.22013">
        <ele>672.4</ele>
        <time>2021-06-15T13:18:18Z</time>
      </trkpt>
      <trkpt lat="45.40846" lon="4.22003">
        <ele>673.2</ele>
        <time>2021-06-15T13:18:23Z</time>
      </trkpt>
      <trkpt lat="45.40851" lon="4.21999">
        <ele>673.6</ele>
        <time>2021-06-15T13:18:25Z</time>
      </trkpt>
      <trkpt lat="45.40864" lon="4.21992">
        <ele>674.6</ele>
        <time>2021-06-15T13:18:29Z</time>
      </trkpt>
      <trkpt lat="45.40875" lon="4.21984">
        <ele>675.4</ele>
        <time>2021-06-15T13:18:33Z</time>
      </trkpt>
      <trkpt lat="45.40878" lon="4.21982">
        <ele>675.8</ele>
        <time>2021-06-15T13:18:34Z</time>
      </trkpt>
      <trkpt lat="45.40891" lon="4.21972">
        <ele>676.6</ele>
        <time>2021-06-15T13:18:39Z</time>
      </trkpt>
      <trkpt lat="45.40893" lon="4.2197">
        <ele>676.8</ele>
        <time>2021-06-15T13:18:40Z</time>
      </trkpt>
      <trkpt lat="45.409" lon="4.21967">
        <ele>677.4</ele>
        <time>2021-06-15T13:18:43Z</time>
      </trkpt>
      <trkpt lat="45.40907" lon="4.21963">
        <ele>678</ele>
        <time>2021-06-15T13:18:46Z</time>
      </trkpt>
      <trkpt lat="45.40921" lon="4.21959">
        <ele>679.2</ele>
        <time>2021-06-15T13:18:50Z</time>
      </trkpt>
      <trkpt lat="45.40933" lon="4.21955">
        <ele>679.6</ele>
        <time>2021-06-15T13:18:53Z</time>
      </trkpt>
      <trkpt lat="45.40943" lon="4.21951">
        <ele>680.4</ele>
        <time>2021-06-15T13:18:56Z</time>
      </trkpt>
      <trkpt lat="45.40963" lon="4.21943">
        <ele>681.4</ele>
        <time>2021-06-15T13:19:03Z</time>
      </trkpt>
      <trkpt lat="45.40983" lon="4.21931">
        <ele>682.4</ele>
        <time>2021-06-15T13:19:09Z</time>
      </trkpt>
      <trkpt lat="45.40993" lon="4.21925">
        <ele>683.4</ele>
        <time>2021-06-15T13:19:13Z</time>
      </trkpt>
      <trkpt lat="45.40996" lon="4.21923">
        <ele>683.6</ele>
        <time>2021-06-15T13:19:14Z</time>
      </trkpt>
      <trkpt lat="45.41012" lon="4.21914">
        <ele>684.8</ele>
        <time>2021-06-15T13:19:20Z</time>
      </trkpt>
      <trkpt lat="45.41019" lon="4.21909">
        <ele>685.4</ele>
        <time>2021-06-15T13:19:23Z</time>
      </trkpt>
      <trkpt lat="45.41028" lon="4.21902">
        <ele>686</ele>
        <time>2021-06-15T13:19:27Z</time>
      </trkpt>
      <trkpt lat="45.41038" lon="4.21886">
        <ele>687</ele>
        <time>2021-06-15T13:19:32Z</time>
      </trkpt>
      <trkpt lat="45.41041" lon="4.21882">
        <ele>687.2</ele>
        <time>2021-06-15T13:19:33Z</time>
      </trkpt>
      <trkpt lat="45.41051" lon="4.21865">
        <ele>688.2</ele>
        <time>2021-06-15T13:19:38Z</time>
      </trkpt>
      <trkpt lat="45.41062" lon="4.21846">
        <ele>689.2</ele>
        <time>2021-06-15T13:19:43Z</time>
      </trkpt>
      <trkpt lat="45.41072" lon="4.21826">
        <ele>690.4</ele>
        <time>2021-06-15T13:19:48Z</time>
      </trkpt>
      <trkpt lat="45.41082" lon="4.21809">
        <ele>691.6</ele>
        <time>2021-06-15T13:19:53Z</time>
      </trkpt>
      <trkpt lat="45.41089" lon="4.2179">
        <ele>692.8</ele>
        <time>2021-06-15T13:19:58Z</time>
      </trkpt>
      <trkpt lat="45.41094" lon="4.21771">
        <ele>693.6</ele>
        <time>2021-06-15T13:20:03Z</time>
      </trkpt>
      <trkpt lat="45.41093" lon="4.21767">
        <ele>694</ele>
        <time>2021-06-15T13:20:04Z</time>
      </trkpt>
      <trkpt lat="45.4109" lon="4.2175">
        <ele>695</ele>
        <time>2021-06-15T13:20:08Z</time>
      </trkpt>
      <trkpt lat="45.41078" lon="4.21735">
        <ele>695.8</ele>
        <time>2021-06-15T13:20:13Z</time>
      </trkpt>
      <trkpt lat="45.41075" lon="4.21733">
        <ele>696</ele>
        <time>2021-06-15T13:20:14Z</time>
      </trkpt>
      <trkpt lat="45.41067" lon="4.2173">
        <ele>696.6</ele>
        <time>2021-06-15T13:20:17Z</time>
      </trkpt>
      <trkpt lat="45.41058" lon="4.21728">
        <ele>697.2</ele>
        <time>2021-06-15T13:20:21Z</time>
      </trkpt>
      <trkpt lat="45.41053" lon="4.21728">
        <ele>697.6</ele>
        <time>2021-06-15T13:20:23Z</time>
      </trkpt>
      <trkpt lat="45.41039" lon="4.21729">
        <ele>698.2</ele>
        <time>2021-06-15T13:20:28Z</time>
      </trkpt>
      <trkpt lat="45.41025" lon="4.21733">
        <ele>698.8</ele>
        <time>2021-06-15T13:20:33Z</time>
      </trkpt>
      <trkpt lat="45.41007" lon="4.21739">
        <ele>699.6</ele>
        <time>2021-06-15T13:20:38Z</time>
      </trkpt>
      <trkpt lat="45.40993" lon="4.21742">
        <ele>700.6</ele>
        <time>2021-06-15T13:20:42Z</time>
      </trkpt>
      <trkpt lat="45.40989" lon="4.21744">
        <ele>700.8</ele>
        <time>2021-06-15T13:20:43Z</time>
      </trkpt>
      <trkpt lat="45.40982" lon="4.21731">
        <ele>701.8</ele>
        <time>2021-06-15T13:20:48Z</time>
      </trkpt>
      <trkpt lat="45.40984" lon="4.21722">
        <ele>703</ele>
        <time>2021-06-15T13:20:51Z</time>
      </trkpt>
      <trkpt lat="45.40987" lon="4.21717">
        <ele>703.6</ele>
        <time>2021-06-15T13:20:53Z</time>
      </trkpt>
      <trkpt lat="45.40992" lon="4.21709">
        <ele>704</ele>
        <time>2021-06-15T13:20:56Z</time>
      </trkpt>
      <trkpt lat="45.40997" lon="4.21702">
        <ele>704.6</ele>
        <time>2021-06-15T13:20:59Z</time>
      </trkpt>
      <trkpt lat="45.41004" lon="4.21695">
        <ele>705.2</ele>
        <time>2021-06-15T13:21:02Z</time>
      </trkpt>
      <trkpt lat="45.41007" lon="4.21693">
        <ele>705.4</ele>
        <time>2021-06-15T13:21:03Z</time>
      </trkpt>
      <trkpt lat="45.41018" lon="4.21676">
        <ele>706.2</ele>
        <time>2021-06-15T13:21:09Z</time>
      </trkpt>
      <trkpt lat="45.41021" lon="4.21665">
        <ele>707.2</ele>
        <time>2021-06-15T13:21:13Z</time>
      </trkpt>
      <trkpt lat="45.41022" lon="4.2166">
        <ele>707.4</ele>
        <time>2021-06-15T13:21:14Z</time>
      </trkpt>
      <trkpt lat="45.41023" lon="4.21656">
        <ele>707.6</ele>
        <time>2021-06-15T13:21:15Z</time>
      </trkpt>
      <trkpt lat="45.41033" lon="4.21652">
        <ele>708.4</ele>
        <time>2021-06-15T13:21:19Z</time>
      </trkpt>
      <trkpt lat="45.41042" lon="4.21651">
        <ele>709</ele>
        <time>2021-06-15T13:21:23Z</time>
      </trkpt>
      <trkpt lat="45.41049" lon="4.2165">
        <ele>709.4</ele>
        <time>2021-06-15T13:21:26Z</time>
      </trkpt>
      <trkpt lat="45.41066" lon="4.21647">
        <ele>710</ele>
        <time>2021-06-15T13:21:33Z</time>
      </trkpt>
      <trkpt lat="45.41071" lon="4.21647">
        <ele>710.4</ele>
        <time>2021-06-15T13:21:35Z</time>
      </trkpt>
      <trkpt lat="45.41073" lon="4.21646">
        <ele>710.6</ele>
        <time>2021-06-15T13:21:36Z</time>
      </trkpt>
      <trkpt lat="45.41082" lon="4.21646">
        <ele>710.8</ele>
        <time>2021-06-15T13:21:39Z</time>
      </trkpt>
      <trkpt lat="45.41094" lon="4.21649">
        <ele>711</ele>
        <time>2021-06-15T13:21:43Z</time>
      </trkpt>
      <trkpt lat="45.41107" lon="4.21654">
        <ele>711.6</ele>
        <time>2021-06-15T13:21:47Z</time>
      </trkpt>
      <trkpt lat="45.41113" lon="4.21655">
        <ele>712</ele>
        <time>2021-06-15T13:21:49Z</time>
      </trkpt>
      <trkpt lat="45.41125" lon="4.21659">
        <ele>712.8</ele>
        <time>2021-06-15T13:21:53Z</time>
      </trkpt>
      <trkpt lat="45.41135" lon="4.21666">
        <ele>713.8</ele>
        <time>2021-06-15T13:21:59Z</time>
      </trkpt>
      <trkpt lat="45.41137" lon="4.21667">
        <ele>714</ele>
        <time>2021-06-15T13:22:00Z</time>
      </trkpt>
      <trkpt lat="45.41141" lon="4.21668">
        <ele>714.6</ele>
        <time>2021-06-15T13:22:02Z</time>
      </trkpt>
      <trkpt lat="45.41144" lon="4.21668">
        <ele>714.8</ele>
        <time>2021-06-15T13:22:03Z</time>
      </trkpt>
      <trkpt lat="45.41154" lon="4.21666">
        <ele>716</ele>
        <time>2021-06-15T13:22:08Z</time>
      </trkpt>
      <trkpt lat="45.41167" lon="4.2167">
        <ele>716.4</ele>
        <time>2021-06-15T13:22:13Z</time>
      </trkpt>
      <trkpt lat="45.41172" lon="4.21683">
        <ele>715</ele>
        <time>2021-06-15T13:22:17Z</time>
      </trkpt>
      <trkpt lat="45.41169" lon="4.21694">
        <ele>713.8</ele>
        <time>2021-06-15T13:22:20Z</time>
      </trkpt>
      <trkpt lat="45.41166" lon="4.21699">
        <ele>713.4</ele>
        <time>2021-06-15T13:22:22Z</time>
      </trkpt>
      <trkpt lat="45.41164" lon="4.21702">
        <ele>713</ele>
        <time>2021-06-15T13:22:23Z</time>
      </trkpt>
      <trkpt lat="45.41156" lon="4.21719">
        <ele>712.8</ele>
        <time>2021-06-15T13:22:27Z</time>
      </trkpt>
      <trkpt lat="45.41153" lon="4.21739">
        <ele>712.2</ele>
        <time>2021-06-15T13:22:33Z</time>
      </trkpt>
      <trkpt lat="45.41152" lon="4.21755">
        <ele>711.6</ele>
        <time>2021-06-15T13:22:37Z</time>
      </trkpt>
      <trkpt lat="45.41155" lon="4.21776">
        <ele>710.8</ele>
        <time>2021-06-15T13:22:41Z</time>
      </trkpt>
      <trkpt lat="45.41157" lon="4.21781">
        <ele>710</ele>
        <time>2021-06-15T13:22:42Z</time>
      </trkpt>
      <trkpt lat="45.41158" lon="4.21787">
        <ele>709.4</ele>
        <time>2021-06-15T13:22:43Z</time>
      </trkpt>
      <trkpt lat="45.41158" lon="4.21794">
        <ele>708.8</ele>
        <time>2021-06-15T13:22:44Z</time>
      </trkpt>
      <trkpt lat="45.41158" lon="4.21811">
        <ele>707.8</ele>
        <time>2021-06-15T13:22:47Z</time>
      </trkpt>
      <trkpt lat="45.41144" lon="4.21854">
        <ele>706.8</ele>
        <time>2021-06-15T13:22:51Z</time>
      </trkpt>
      <trkpt lat="45.41135" lon="4.21852">
        <ele>706.4</ele>
        <time>2021-06-15T13:22:53Z</time>
      </trkpt>
      <trkpt lat="45.41117" lon="4.21852">
        <ele>706.6</ele>
        <time>2021-06-15T13:22:59Z</time>
      </trkpt>
      <trkpt lat="45.41112" lon="4.21862">
        <ele>706.8</ele>
        <time>2021-06-15T13:23:03Z</time>
      </trkpt>
      <trkpt lat="45.41111" lon="4.21866">
        <ele>707.2</ele>
        <time>2021-06-15T13:23:05Z</time>
      </trkpt>
      <trkpt lat="45.41105" lon="4.21874">
        <ele>707.8</ele>
        <time>2021-06-15T13:23:10Z</time>
      </trkpt>
      <trkpt lat="45.41102" lon="4.21878">
        <ele>708.4</ele>
        <time>2021-06-15T13:23:13Z</time>
      </trkpt>
      <trkpt lat="45.411" lon="4.21881">
        <ele>708.8</ele>
        <time>2021-06-15T13:23:15Z</time>
      </trkpt>
      <trkpt lat="45.411" lon="4.21883">
        <ele>708.8</ele>
        <time>2021-06-15T13:23:16Z</time>
      </trkpt>
      <trkpt lat="45.41093" lon="4.21898">
        <ele>709.4</ele>
        <time>2021-06-15T13:23:23Z</time>
      </trkpt>
      <trkpt lat="45.41071" lon="4.21931">
        <ele>708.6</ele>
        <time>2021-06-15T13:23:29Z</time>
      </trkpt>
      <trkpt lat="45.41063" lon="4.21938">
        <ele>707.8</ele>
        <time>2021-06-15T13:23:31Z</time>
      </trkpt>
      <trkpt lat="45.41058" lon="4.21942">
        <ele>706.4</ele>
        <time>2021-06-15T13:23:33Z</time>
      </trkpt>
      <trkpt lat="45.41047" lon="4.21952">
        <ele>705.2</ele>
        <time>2021-06-15T13:23:38Z</time>
      </trkpt>
      <trkpt lat="45.4103" lon="4.21966">
        <ele>704.2</ele>
        <time>2021-06-15T13:23:43Z</time>
      </trkpt>
      <trkpt lat="45.40979" lon="4.21993">
        <ele>703.4</ele>
        <time>2021-06-15T13:23:53Z</time>
      </trkpt>
      <trkpt lat="45.40973" lon="4.21999">
        <ele>703.2</ele>
        <time>2021-06-15T13:23:55Z</time>
      </trkpt>
      <trkpt lat="45.4096" lon="4.22011">
        <ele>704</ele>
        <time>2021-06-15T13:24:00Z</time>
      </trkpt>
      <trkpt lat="45.40958" lon="4.22012">
        <ele>704.6</ele>
        <time>2021-06-15T13:24:01Z</time>
      </trkpt>
      <trkpt lat="45.40955" lon="4.22015">
        <ele>705.4</ele>
        <time>2021-06-15T13:24:03Z</time>
      </trkpt>
      <trkpt lat="45.40949" lon="4.22016">
        <ele>705.6</ele>
        <time>2021-06-15T13:24:05Z</time>
      </trkpt>
      <trkpt lat="45.40937" lon="4.22022">
        <ele>706.4</ele>
        <time>2021-06-15T13:24:13Z</time>
      </trkpt>
      <trkpt lat="45.40931" lon="4.22023">
        <ele>706.8</ele>
        <time>2021-06-15T13:24:16Z</time>
      </trkpt>
      <trkpt lat="45.4092" lon="4.22028">
        <ele>707.8</ele>
        <time>2021-06-15T13:24:21Z</time>
      </trkpt>
      <trkpt lat="45.40917" lon="4.22032">
        <ele>708</ele>
        <time>2021-06-15T13:24:23Z</time>
      </trkpt>
      <trkpt lat="45.40908" lon="4.22044">
        <ele>708.8</ele>
        <time>2021-06-15T13:24:29Z</time>
      </trkpt>
      <trkpt lat="45.40904" lon="4.22046">
        <ele>708.8</ele>
        <time>2021-06-15T13:24:31Z</time>
      </trkpt>
      <trkpt lat="45.40899" lon="4.22052">
        <ele>709.2</ele>
        <time>2021-06-15T13:24:33Z</time>
      </trkpt>
      <trkpt lat="45.40895" lon="4.22055">
        <ele>710</ele>
        <time>2021-06-15T13:24:36Z</time>
      </trkpt>
      <trkpt lat="45.40891" lon="4.22068">
        <ele>711.2</ele>
        <time>2021-06-15T13:24:42Z</time>
      </trkpt>
      <trkpt lat="45.40893" lon="4.22069">
        <ele>711.4</ele>
        <time>2021-06-15T13:24:43Z</time>
      </trkpt>
      <trkpt lat="45.40896" lon="4.2207">
        <ele>712.4</ele>
        <time>2021-06-15T13:24:47Z</time>
      </trkpt>
      <trkpt lat="45.40896" lon="4.2207">
        <ele>713</ele>
        <time>2021-06-15T13:24:49Z</time>
      </trkpt>
      <trkpt lat="45.40895" lon="4.22071">
        <ele>713.4</ele>
        <time>2021-06-15T13:24:51Z</time>
      </trkpt>
      <trkpt lat="45.40895" lon="4.22071">
        <ele>713.6</ele>
        <time>2021-06-15T13:24:53Z</time>
      </trkpt>
      <trkpt lat="45.40897" lon="4.2207">
        <ele>714.4</ele>
        <time>2021-06-15T13:25:00Z</time>
      </trkpt>
      <trkpt lat="45.40899" lon="4.22071">
        <ele>714.8</ele>
        <time>2021-06-15T13:25:03Z</time>
      </trkpt>
      <trkpt lat="45.40901" lon="4.22071">
        <ele>715.6</ele>
        <time>2021-06-15T13:25:06Z</time>
      </trkpt>
      <trkpt lat="45.40902" lon="4.22073">
        <ele>716.4</ele>
        <time>2021-06-15T13:25:13Z</time>
      </trkpt>
      <trkpt lat="45.40906" lon="4.22076">
        <ele>716.6</ele>
        <time>2021-06-15T13:25:19Z</time>
      </trkpt>
      <trkpt lat="45.4091" lon="4.22079">
        <ele>717.4</ele>
        <time>2021-06-15T13:25:23Z</time>
      </trkpt>
      <trkpt lat="45.40911" lon="4.2208">
        <ele>717.6</ele>
        <time>2021-06-15T13:25:24Z</time>
      </trkpt>
      <trkpt lat="45.40914" lon="4.22083">
        <ele>718.6</ele>
        <time>2021-06-15T13:25:27Z</time>
      </trkpt>
      <trkpt lat="45.40916" lon="4.22087">
        <ele>719.8</ele>
        <time>2021-06-15T13:25:30Z</time>
      </trkpt>
      <trkpt lat="45.40917" lon="4.22091">
        <ele>720.8</ele>
        <time>2021-06-15T13:25:33Z</time>
      </trkpt>
      <trkpt lat="45.40917" lon="4.22092">
        <ele>721</ele>
        <time>2021-06-15T13:25:34Z</time>
      </trkpt>
      <trkpt lat="45.4092" lon="4.22098">
        <ele>722</ele>
        <time>2021-06-15T13:25:39Z</time>
      </trkpt>
      <trkpt lat="45.4092" lon="4.22101">
        <ele>722.6</ele>
        <time>2021-06-15T13:25:41Z</time>
      </trkpt>
      <trkpt lat="45.40921" lon="4.22104">
        <ele>723</ele>
        <time>2021-06-15T13:25:43Z</time>
      </trkpt>
      <trkpt lat="45.40921" lon="4.22107">
        <ele>723.4</ele>
        <time>2021-06-15T13:25:44Z</time>
      </trkpt>
      <trkpt lat="45.40921" lon="4.22109">
        <ele>723.6</ele>
        <time>2021-06-15T13:25:45Z</time>
      </trkpt>
      <trkpt lat="45.40921" lon="4.22111">
        <ele>723.8</ele>
        <time>2021-06-15T13:25:46Z</time>
      </trkpt>
      <trkpt lat="45.40921" lon="4.22113">
        <ele>723.8</ele>
        <time>2021-06-15T13:25:47Z</time>
      </trkpt>
      <trkpt lat="45.40921" lon="4.22118">
        <ele>724.4</ele>
        <time>2021-06-15T13:25:50Z</time>
      </trkpt>
      <trkpt lat="45.40921" lon="4.22123">
        <ele>725.2</ele>
        <time>2021-06-15T13:25:53Z</time>
      </trkpt>
      <trkpt lat="45.40921" lon="4.22125">
        <ele>725.4</ele>
        <time>2021-06-15T13:25:54Z</time>
      </trkpt>
      <trkpt lat="45.40922" lon="4.22126">
        <ele>725.6</ele>
        <time>2021-06-15T13:25:55Z</time>
      </trkpt>
      <trkpt lat="45.40923" lon="4.22134">
        <ele>726.2</ele>
        <time>2021-06-15T13:25:59Z</time>
      </trkpt>
      <trkpt lat="45.40923" lon="4.22137">
        <ele>726.8</ele>
        <time>2021-06-15T13:26:01Z</time>
      </trkpt>
      <trkpt lat="45.40925" lon="4.22139">
        <ele>727.4</ele>
        <time>2021-06-15T13:26:03Z</time>
      </trkpt>
      <trkpt lat="45.40928" lon="4.22142">
        <ele>728</ele>
        <time>2021-06-15T13:26:05Z</time>
      </trkpt>
      <trkpt lat="45.4093" lon="4.22144">
        <ele>728.4</ele>
        <time>2021-06-15T13:26:07Z</time>
      </trkpt>
      <trkpt lat="45.40933" lon="4.22145">
        <ele>729</ele>
        <time>2021-06-15T13:26:09Z</time>
      </trkpt>
      <trkpt lat="45.40936" lon="4.22145">
        <ele>729.6</ele>
        <time>2021-06-15T13:26:11Z</time>
      </trkpt>
      <trkpt lat="45.40939" lon="4.22146">
        <ele>730</ele>
        <time>2021-06-15T13:26:13Z</time>
      </trkpt>
      <trkpt lat="45.40944" lon="4.22148">
        <ele>731.2</ele>
        <time>2021-06-15T13:26:16Z</time>
      </trkpt>
      <trkpt lat="45.40946" lon="4.22149">
        <ele>731.4</ele>
        <time>2021-06-15T13:26:17Z</time>
      </trkpt>
      <trkpt lat="45.40951" lon="4.22152">
        <ele>732.6</ele>
        <time>2021-06-15T13:26:20Z</time>
      </trkpt>
      <trkpt lat="45.40954" lon="4.22155">
        <ele>733.6</ele>
        <time>2021-06-15T13:26:23Z</time>
      </trkpt>
      <trkpt lat="45.40955" lon="4.22155">
        <ele>734</ele>
        <time>2021-06-15T13:26:24Z</time>
      </trkpt>
      <trkpt lat="45.40959" lon="4.22158">
        <ele>734.6</ele>
        <time>2021-06-15T13:26:26Z</time>
      </trkpt>
      <trkpt lat="45.40961" lon="4.22161">
        <ele>735</ele>
        <time>2021-06-15T13:26:28Z</time>
      </trkpt>
      <trkpt lat="45.40961" lon="4.22164">
        <ele>735.2</ele>
        <time>2021-06-15T13:26:29Z</time>
      </trkpt>
      <trkpt lat="45.40963" lon="4.22166">
        <ele>735.4</ele>
        <time>2021-06-15T13:26:30Z</time>
      </trkpt>
      <trkpt lat="45.40965" lon="4.2217">
        <ele>736.2</ele>
        <time>2021-06-15T13:26:32Z</time>
      </trkpt>
      <trkpt lat="45.40966" lon="4.22172">
        <ele>736.6</ele>
        <time>2021-06-15T13:26:33Z</time>
      </trkpt>
      <trkpt lat="45.40968" lon="4.22176">
        <ele>737</ele>
        <time>2021-06-15T13:26:35Z</time>
      </trkpt>
      <trkpt lat="45.40969" lon="4.22178">
        <ele>737.2</ele>
        <time>2021-06-15T13:26:36Z</time>
      </trkpt>
      <trkpt lat="45.4097" lon="4.22182">
        <ele>737.6</ele>
        <time>2021-06-15T13:26:38Z</time>
      </trkpt>
      <trkpt lat="45.40971" lon="4.22183">
        <ele>737.8</ele>
        <time>2021-06-15T13:26:39Z</time>
      </trkpt>
      <trkpt lat="45.40972" lon="4.22185">
        <ele>738.2</ele>
        <time>2021-06-15T13:26:40Z</time>
      </trkpt>
      <trkpt lat="45.40973" lon="4.22187">
        <ele>738.6</ele>
        <time>2021-06-15T13:26:41Z</time>
      </trkpt>
      <trkpt lat="45.40974" lon="4.22188">
        <ele>738.6</ele>
        <time>2021-06-15T13:26:42Z</time>
      </trkpt>
      <trkpt lat="45.40974" lon="4.2219">
        <ele>738.8</ele>
        <time>2021-06-15T13:26:43Z</time>
      </trkpt>
      <trkpt lat="45.40975" lon="4.22191">
        <ele>739</ele>
        <time>2021-06-15T13:26:44Z</time>
      </trkpt>
      <trkpt lat="45.40976" lon="4.22194">
        <ele>739.6</ele>
        <time>2021-06-15T13:26:46Z</time>
      </trkpt>
      <trkpt lat="45.40977" lon="4.22202">
        <ele>740.6</ele>
        <time>2021-06-15T13:26:50Z</time>
      </trkpt>
      <trkpt lat="45.40977" lon="4.22205">
        <ele>740.8</ele>
        <time>2021-06-15T13:26:51Z</time>
      </trkpt>
      <trkpt lat="45.40977" lon="4.2221">
        <ele>741.2</ele>
        <time>2021-06-15T13:26:53Z</time>
      </trkpt>
      <trkpt lat="45.40977" lon="4.22216">
        <ele>741.4</ele>
        <time>2021-06-15T13:26:55Z</time>
      </trkpt>
      <trkpt lat="45.40977" lon="4.22221">
        <ele>741.8</ele>
        <time>2021-06-15T13:26:57Z</time>
      </trkpt>
      <trkpt lat="45.40978" lon="4.22226">
        <ele>742.6</ele>
        <time>2021-06-15T13:27:00Z</time>
      </trkpt>
      <trkpt lat="45.4098" lon="4.2223">
        <ele>743.2</ele>
        <time>2021-06-15T13:27:02Z</time>
      </trkpt>
      <trkpt lat="45.4098" lon="4.22231">
        <ele>743.4</ele>
        <time>2021-06-15T13:27:03Z</time>
      </trkpt>
      <trkpt lat="45.40983" lon="4.22237">
        <ele>744.2</ele>
        <time>2021-06-15T13:27:08Z</time>
      </trkpt>
      <trkpt lat="45.40987" lon="4.22241">
        <ele>745.4</ele>
        <time>2021-06-15T13:27:11Z</time>
      </trkpt>
      <trkpt lat="45.4099" lon="4.22244">
        <ele>745.8</ele>
        <time>2021-06-15T13:27:13Z</time>
      </trkpt>
      <trkpt lat="45.40993" lon="4.22246">
        <ele>746.4</ele>
        <time>2021-06-15T13:27:15Z</time>
      </trkpt>
      <trkpt lat="45.40994" lon="4.22247">
        <ele>746.6</ele>
        <time>2021-06-15T13:27:16Z</time>
      </trkpt>
      <trkpt lat="45.40996" lon="4.22248">
        <ele>747</ele>
        <time>2021-06-15T13:27:17Z</time>
      </trkpt>
      <trkpt lat="45.41" lon="4.22252">
        <ele>747.6</ele>
        <time>2021-06-15T13:27:20Z</time>
      </trkpt>
      <trkpt lat="45.41001" lon="4.22252">
        <ele>748</ele>
        <time>2021-06-15T13:27:21Z</time>
      </trkpt>
      <trkpt lat="45.41002" lon="4.22254">
        <ele>748.4</ele>
        <time>2021-06-15T13:27:23Z</time>
      </trkpt>
      <trkpt lat="45.41003" lon="4.22255">
        <ele>749.2</ele>
        <time>2021-06-15T13:27:25Z</time>
      </trkpt>
      <trkpt lat="45.41006" lon="4.22257">
        <ele>749.4</ele>
        <time>2021-06-15T13:27:27Z</time>
      </trkpt>
      <trkpt lat="45.41011" lon="4.22264">
        <ele>750.2</ele>
        <time>2021-06-15T13:27:31Z</time>
      </trkpt>
      <trkpt lat="45.41013" lon="4.22265">
        <ele>750.6</ele>
        <time>2021-06-15T13:27:32Z</time>
      </trkpt>
      <trkpt lat="45.41014" lon="4.22266">
        <ele>750.8</ele>
        <time>2021-06-15T13:27:33Z</time>
      </trkpt>
      <trkpt lat="45.41019" lon="4.22267">
        <ele>751.4</ele>
        <time>2021-06-15T13:27:35Z</time>
      </trkpt>
      <trkpt lat="45.41024" lon="4.22269">
        <ele>752</ele>
        <time>2021-06-15T13:27:38Z</time>
      </trkpt>
      <trkpt lat="45.4103" lon="4.22272">
        <ele>752.4</ele>
        <time>2021-06-15T13:27:42Z</time>
      </trkpt>
      <trkpt lat="45.41032" lon="4.22272">
        <ele>752.6</ele>
        <time>2021-06-15T13:27:43Z</time>
      </trkpt>
      <trkpt lat="45.41038" lon="4.22274">
        <ele>753.2</ele>
        <time>2021-06-15T13:27:47Z</time>
      </trkpt>
      <trkpt lat="45.4104" lon="4.22274">
        <ele>753.6</ele>
        <time>2021-06-15T13:27:49Z</time>
      </trkpt>
      <trkpt lat="45.41045" lon="4.22273">
        <ele>754.2</ele>
        <time>2021-06-15T13:27:53Z</time>
      </trkpt>
      <trkpt lat="45.41048" lon="4.22272">
        <ele>754.6</ele>
        <time>2021-06-15T13:27:55Z</time>
      </trkpt>
      <trkpt lat="45.41052" lon="4.22272">
        <ele>755</ele>
        <time>2021-06-15T13:27:57Z</time>
      </trkpt>
      <trkpt lat="45.41065" lon="4.22272">
        <ele>755.6</ele>
        <time>2021-06-15T13:28:03Z</time>
      </trkpt>
      <trkpt lat="45.41077" lon="4.22276">
        <ele>756.2</ele>
        <time>2021-06-15T13:28:09Z</time>
      </trkpt>
      <trkpt lat="45.41087" lon="4.22278">
        <ele>756.6</ele>
        <time>2021-06-15T13:28:13Z</time>
      </trkpt>
      <trkpt lat="45.41088" lon="4.22279">
        <ele>756.6</ele>
        <time>2021-06-15T13:28:14Z</time>
      </trkpt>
      <trkpt lat="45.41106" lon="4.22283">
        <ele>757.6</ele>
        <time>2021-06-15T13:28:23Z</time>
      </trkpt>
      <trkpt lat="45.41122" lon="4.22286">
        <ele>758.8</ele>
        <time>2021-06-15T13:28:29Z</time>
      </trkpt>
      <trkpt lat="45.41124" lon="4.22286">
        <ele>759</ele>
        <time>2021-06-15T13:28:30Z</time>
      </trkpt>
      <trkpt lat="45.41133" lon="4.22288">
        <ele>759.4</ele>
        <time>2021-06-15T13:28:33Z</time>
      </trkpt>
      <trkpt lat="45.41142" lon="4.2229">
        <ele>759.8</ele>
        <time>2021-06-15T13:28:37Z</time>
      </trkpt>
      <trkpt lat="45.41152" lon="4.2229">
        <ele>760.2</ele>
        <time>2021-06-15T13:28:40Z</time>
      </trkpt>
      <trkpt lat="45.41161" lon="4.22285">
        <ele>760.4</ele>
        <time>2021-06-15T13:28:43Z</time>
      </trkpt>
      <trkpt lat="45.41178" lon="4.22273">
        <ele>760.8</ele>
        <time>2021-06-15T13:28:48Z</time>
      </trkpt>
      <trkpt lat="45.41193" lon="4.22252">
        <ele>759.8</ele>
        <time>2021-06-15T13:28:53Z</time>
      </trkpt>
      <trkpt lat="45.41205" lon="4.22241">
        <ele>758.6</ele>
        <time>2021-06-15T13:28:56Z</time>
      </trkpt>
      <trkpt lat="45.41211" lon="4.22236">
        <ele>757.8</ele>
        <time>2021-06-15T13:28:58Z</time>
      </trkpt>
      <trkpt lat="45.41214" lon="4.22234">
        <ele>757.6</ele>
        <time>2021-06-15T13:28:59Z</time>
      </trkpt>
      <trkpt lat="45.41227" lon="4.22229">
        <ele>756.8</ele>
        <time>2021-06-15T13:29:03Z</time>
      </trkpt>
      <trkpt lat="45.41258" lon="4.22223">
        <ele>757</ele>
        <time>2021-06-15T13:29:13Z</time>
      </trkpt>
      <trkpt lat="45.41272" lon="4.22222">
        <ele>757.4</ele>
        <time>2021-06-15T13:29:17Z</time>
      </trkpt>
      <trkpt lat="45.4129" lon="4.2222">
        <ele>758</ele>
        <time>2021-06-15T13:29:23Z</time>
      </trkpt>
      <trkpt lat="45.41292" lon="4.22221">
        <ele>758.2</ele>
        <time>2021-06-15T13:29:24Z</time>
      </trkpt>
      <trkpt lat="45.41294" lon="4.22226">
        <ele>758.6</ele>
        <time>2021-06-15T13:29:26Z</time>
      </trkpt>
      <trkpt lat="45.41289" lon="4.2224">
        <ele>759.8</ele>
        <time>2021-06-15T13:29:32Z</time>
      </trkpt>
      <trkpt lat="45.41288" lon="4.22243">
        <ele>760</ele>
        <time>2021-06-15T13:29:33Z</time>
      </trkpt>
      <trkpt lat="45.41285" lon="4.22253">
        <ele>760.8</ele>
        <time>2021-06-15T13:29:36Z</time>
      </trkpt>
      <trkpt lat="45.41274" lon="4.22281">
        <ele>761.8</ele>
        <time>2021-06-15T13:29:43Z</time>
      </trkpt>
      <trkpt lat="45.41271" lon="4.22289">
        <ele>761.8</ele>
        <time>2021-06-15T13:29:45Z</time>
      </trkpt>
      <trkpt lat="45.41259" lon="4.22317">
        <ele>762.4</ele>
        <time>2021-06-15T13:29:53Z</time>
      </trkpt>
      <trkpt lat="45.41251" lon="4.22334">
        <ele>763</ele>
        <time>2021-06-15T13:29:59Z</time>
      </trkpt>
      <trkpt lat="45.41245" lon="4.22346">
        <ele>763.4</ele>
        <time>2021-06-15T13:30:03Z</time>
      </trkpt>
      <trkpt lat="45.41231" lon="4.22373">
        <ele>764</ele>
        <time>2021-06-15T13:30:12Z</time>
      </trkpt>
      <trkpt lat="45.41229" lon="4.22377">
        <ele>764.2</ele>
        <time>2021-06-15T13:30:13Z</time>
      </trkpt>
      <trkpt lat="45.41215" lon="4.22404">
        <ele>765</ele>
        <time>2021-06-15T13:30:22Z</time>
      </trkpt>
      <trkpt lat="45.41214" lon="4.22406">
        <ele>765.2</ele>
        <time>2021-06-15T13:30:23Z</time>
      </trkpt>
      <trkpt lat="45.41207" lon="4.22416">
        <ele>765.8</ele>
        <time>2021-06-15T13:30:28Z</time>
      </trkpt>
      <trkpt lat="45.412" lon="4.22427">
        <ele>766.2</ele>
        <time>2021-06-15T13:30:33Z</time>
      </trkpt>
      <trkpt lat="45.41188" lon="4.22444">
        <ele>767</ele>
        <time>2021-06-15T13:30:43Z</time>
      </trkpt>
      <trkpt lat="45.41185" lon="4.22449">
        <ele>767.2</ele>
        <time>2021-06-15T13:30:47Z</time>
      </trkpt>
      <trkpt lat="45.41185" lon="4.22452">
        <ele>767.8</ele>
        <time>2021-06-15T13:30:53Z</time>
      </trkpt>
      <trkpt lat="45.41184" lon="4.22453">
        <ele>767.8</ele>
        <time>2021-06-15T13:30:56Z</time>
      </trkpt>
      <trkpt lat="45.41179" lon="4.22471">
        <ele>768.4</ele>
        <time>2021-06-15T13:33:16Z</time>
      </trkpt>
      <trkpt lat="45.41169" lon="4.22494">
        <ele>767.8</ele>
        <time>2021-06-15T13:33:23Z</time>
      </trkpt>
      <trkpt lat="45.41167" lon="4.22498">
        <ele>767.8</ele>
        <time>2021-06-15T13:33:24Z</time>
      </trkpt>
      <trkpt lat="45.41163" lon="4.22502">
        <ele>767.8</ele>
        <time>2021-06-15T13:33:26Z</time>
      </trkpt>
      <trkpt lat="45.41163" lon="4.22502">
        <ele>767.8</ele>
        <time>2021-06-15T13:33:28Z</time>
      </trkpt>
      <trkpt lat="45.4116" lon="4.22506">
        <ele>767.6</ele>
        <time>2021-06-15T13:33:33Z</time>
      </trkpt>
      <trkpt lat="45.41157" lon="4.22509">
        <ele>767.6</ele>
        <time>2021-06-15T13:33:34Z</time>
      </trkpt>
      <trkpt lat="45.41155" lon="4.22513">
        <ele>767.4</ele>
        <time>2021-06-15T13:33:35Z</time>
      </trkpt>
      <trkpt lat="45.41138" lon="4.22538">
        <ele>767.2</ele>
        <time>2021-06-15T13:33:40Z</time>
      </trkpt>
      <trkpt lat="45.41134" lon="4.22544">
        <ele>767</ele>
        <time>2021-06-15T13:33:41Z</time>
      </trkpt>
      <trkpt lat="45.41125" lon="4.2256">
        <ele>766.6</ele>
        <time>2021-06-15T13:33:43Z</time>
      </trkpt>
      <trkpt lat="45.41108" lon="4.22589">
        <ele>765.4</ele>
        <time>2021-06-15T13:33:47Z</time>
      </trkpt>
      <trkpt lat="45.41093" lon="4.2262">
        <ele>764.2</ele>
        <time>2021-06-15T13:33:51Z</time>
      </trkpt>
      <trkpt lat="45.41089" lon="4.22628">
        <ele>764</ele>
        <time>2021-06-15T13:33:52Z</time>
      </trkpt>
      <trkpt lat="45.41085" lon="4.22637">
        <ele>763.6</ele>
        <time>2021-06-15T13:33:53Z</time>
      </trkpt>
      <trkpt lat="45.41082" lon="4.22645">
        <ele>763</ele>
        <time>2021-06-15T13:33:54Z</time>
      </trkpt>
      <trkpt lat="45.4108" lon="4.22653">
        <ele>762</ele>
        <time>2021-06-15T13:33:55Z</time>
      </trkpt>
      <trkpt lat="45.41079" lon="4.2266">
        <ele>760.8</ele>
        <time>2021-06-15T13:33:56Z</time>
      </trkpt>
      <trkpt lat="45.41076" lon="4.22669">
        <ele>759.4</ele>
        <time>2021-06-15T13:33:58Z</time>
      </trkpt>
      <trkpt lat="45.41073" lon="4.22674">
        <ele>758.6</ele>
        <time>2021-06-15T13:34:00Z</time>
      </trkpt>
      <trkpt lat="45.41071" lon="4.22675">
        <ele>758.2</ele>
        <time>2021-06-15T13:34:01Z</time>
      </trkpt>
      <trkpt lat="45.4107" lon="4.22676">
        <ele>758.2</ele>
        <time>2021-06-15T13:34:02Z</time>
      </trkpt>
      <trkpt lat="45.41069" lon="4.22676">
        <ele>758</ele>
        <time>2021-06-15T13:34:03Z</time>
      </trkpt>
      <trkpt lat="45.41066" lon="4.22676">
        <ele>758.2</ele>
        <time>2021-06-15T13:34:05Z</time>
      </trkpt>
      <trkpt lat="45.41058" lon="4.22674">
        <ele>758.4</ele>
        <time>2021-06-15T13:34:09Z</time>
      </trkpt>
      <trkpt lat="45.41056" lon="4.22674">
        <ele>758.4</ele>
        <time>2021-06-15T13:34:10Z</time>
      </trkpt>
      <trkpt lat="45.41053" lon="4.22673">
        <ele>758.4</ele>
        <time>2021-06-15T13:34:13Z</time>
      </trkpt>
      <trkpt lat="45.41051" lon="4.22673">
        <ele>758.4</ele>
        <time>2021-06-15T13:34:14Z</time>
      </trkpt>
      <trkpt lat="45.4105" lon="4.22672">
        <ele>758.4</ele>
        <time>2021-06-15T13:34:15Z</time>
      </trkpt>
      <trkpt lat="45.4105" lon="4.22672">
        <ele>758.4</ele>
        <time>2021-06-15T13:34:16Z</time>
      </trkpt>
      <trkpt lat="45.41049" lon="4.22673">
        <ele>758</ele>
        <time>2021-06-15T13:34:19Z</time>
      </trkpt>
      <trkpt lat="45.41047" lon="4.22675">
        <ele>757.6</ele>
        <time>2021-06-15T13:34:21Z</time>
      </trkpt>
      <trkpt lat="45.41045" lon="4.22676">
        <ele>757.4</ele>
        <time>2021-06-15T13:34:22Z</time>
      </trkpt>
      <trkpt lat="45.41044" lon="4.22677">
        <ele>757.4</ele>
        <time>2021-06-15T13:34:23Z</time>
      </trkpt>
      <trkpt lat="45.41043" lon="4.22679">
        <ele>757.2</ele>
        <time>2021-06-15T13:34:24Z</time>
      </trkpt>
      <trkpt lat="45.41043" lon="4.22684">
        <ele>756.8</ele>
        <time>2021-06-15T13:34:26Z</time>
      </trkpt>
      <trkpt lat="45.41042" lon="4.22687">
        <ele>756.8</ele>
        <time>2021-06-15T13:34:27Z</time>
      </trkpt>
      <trkpt lat="45.41041" lon="4.2269">
        <ele>756.8</ele>
        <time>2021-06-15T13:34:28Z</time>
      </trkpt>
      <trkpt lat="45.41039" lon="4.22698">
        <ele>756.4</ele>
        <time>2021-06-15T13:34:30Z</time>
      </trkpt>
      <trkpt lat="45.41039" lon="4.22703">
        <ele>756</ele>
        <time>2021-06-15T13:34:31Z</time>
      </trkpt>
      <trkpt lat="45.41038" lon="4.22706">
        <ele>755.6</ele>
        <time>2021-06-15T13:34:32Z</time>
      </trkpt>
      <trkpt lat="45.41037" lon="4.22711">
        <ele>755</ele>
        <time>2021-06-15T13:34:33Z</time>
      </trkpt>
      <trkpt lat="45.41036" lon="4.22716">
        <ele>753.8</ele>
        <time>2021-06-15T13:34:36Z</time>
      </trkpt>
      <trkpt lat="45.41035" lon="4.22718">
        <ele>753.8</ele>
        <time>2021-06-15T13:34:40Z</time>
      </trkpt>
      <trkpt lat="45.41035" lon="4.22719">
        <ele>753.6</ele>
        <time>2021-06-15T13:34:41Z</time>
      </trkpt>
      <trkpt lat="45.41035" lon="4.22721">
        <ele>753.6</ele>
        <time>2021-06-15T13:34:42Z</time>
      </trkpt>
      <trkpt lat="45.41035" lon="4.22723">
        <ele>753.4</ele>
        <time>2021-06-15T13:34:43Z</time>
      </trkpt>
      <trkpt lat="45.41035" lon="4.22724">
        <ele>753.4</ele>
        <time>2021-06-15T13:34:46Z</time>
      </trkpt>
      <trkpt lat="45.41035" lon="4.22725">
        <ele>753.4</ele>
        <time>2021-06-15T13:34:50Z</time>
      </trkpt>
      <trkpt lat="45.41035" lon="4.22725">
        <ele>753.4</ele>
        <time>2021-06-15T13:34:52Z</time>
      </trkpt>
      <trkpt lat="45.41035" lon="4.22725">
        <ele>753.4</ele>
        <time>2021-06-15T13:34:53Z</time>
      </trkpt>
      <trkpt lat="45.41035" lon="4.22727">
        <ele>753.4</ele>
        <time>2021-06-15T13:34:57Z</time>
      </trkpt>
      <trkpt lat="45.41035" lon="4.22728">
        <ele>753.2</ele>
        <time>2021-06-15T13:35:00Z</time>
      </trkpt>
      <trkpt lat="45.41035" lon="4.22728">
        <ele>753.2</ele>
        <time>2021-06-15T13:35:03Z</time>
      </trkpt>
      <trkpt lat="45.41036" lon="4.22731">
        <ele>753</ele>
        <time>2021-06-15T13:35:06Z</time>
      </trkpt>
      <trkpt lat="45.41037" lon="4.22733">
        <ele>752.8</ele>
        <time>2021-06-15T13:35:07Z</time>
      </trkpt>
      <trkpt lat="45.41037" lon="4.22734">
        <ele>752.8</ele>
        <time>2021-06-15T13:35:08Z</time>
      </trkpt>
      <trkpt lat="45.41037" lon="4.22735">
        <ele>752.6</ele>
        <time>2021-06-15T13:35:10Z</time>
      </trkpt>
      <trkpt lat="45.41037" lon="4.22735">
        <ele>752.6</ele>
        <time>2021-06-15T13:35:13Z</time>
      </trkpt>
      <trkpt lat="45.41036" lon="4.22735">
        <ele>752.4</ele>
        <time>2021-06-15T13:35:15Z</time>
      </trkpt>
      <trkpt lat="45.41034" lon="4.22737">
        <ele>752.2</ele>
        <time>2021-06-15T13:35:18Z</time>
      </trkpt>
      <trkpt lat="45.41034" lon="4.22741">
        <ele>751.8</ele>
        <time>2021-06-15T13:35:23Z</time>
      </trkpt>
      <trkpt lat="45.41033" lon="4.22745">
        <ele>752</ele>
        <time>2021-06-15T13:35:30Z</time>
      </trkpt>
      <trkpt lat="45.41033" lon="4.22745">
        <ele>751.8</ele>
        <time>2021-06-15T13:35:33Z</time>
      </trkpt>
      <trkpt lat="45.41033" lon="4.22745">
        <ele>751.8</ele>
        <time>2021-06-15T13:35:34Z</time>
      </trkpt>
      <trkpt lat="45.41033" lon="4.22745">
        <ele>751.8</ele>
        <time>2021-06-15T13:35:43Z</time>
      </trkpt>
      <trkpt lat="45.41034" lon="4.22745">
        <ele>751.6</ele>
        <time>2021-06-15T13:35:46Z</time>
      </trkpt>
      <trkpt lat="45.41035" lon="4.22743">
        <ele>751.6</ele>
        <time>2021-06-15T13:35:51Z</time>
      </trkpt>
      <trkpt lat="45.41036" lon="4.22744">
        <ele>751.6</ele>
        <time>2021-06-15T13:35:53Z</time>
      </trkpt>
      <trkpt lat="45.41037" lon="4.22739">
        <ele>751.4</ele>
        <time>2021-06-15T13:36:03Z</time>
      </trkpt>
      <trkpt lat="45.41038" lon="4.22736">
        <ele>751.8</ele>
        <time>2021-06-15T13:36:06Z</time>
      </trkpt>
      <trkpt lat="45.41038" lon="4.22735">
        <ele>751.8</ele>
        <time>2021-06-15T13:36:07Z</time>
      </trkpt>
      <trkpt lat="45.41039" lon="4.22732">
        <ele>751.8</ele>
        <time>2021-06-15T13:36:10Z</time>
      </trkpt>
      <trkpt lat="45.41038" lon="4.2273">
        <ele>752</ele>
        <time>2021-06-15T13:36:12Z</time>
      </trkpt>
      <trkpt lat="45.41038" lon="4.22729">
        <ele>752.2</ele>
        <time>2021-06-15T13:36:13Z</time>
      </trkpt>
      <trkpt lat="45.41034" lon="4.22725">
        <ele>752.6</ele>
        <time>2021-06-15T13:36:22Z</time>
      </trkpt>
      <trkpt lat="45.41034" lon="4.22724">
        <ele>752.6</ele>
        <time>2021-06-15T13:36:23Z</time>
      </trkpt>
      <trkpt lat="45.41034" lon="4.22722">
        <ele>752.8</ele>
        <time>2021-06-15T13:36:25Z</time>
      </trkpt>
      <trkpt lat="45.41032" lon="4.22717">
        <ele>753.4</ele>
        <time>2021-06-15T13:36:33Z</time>
      </trkpt>
      <trkpt lat="45.41032" lon="4.22715">
        <ele>753.6</ele>
        <time>2021-06-15T13:36:43Z</time>
      </trkpt>
      <trkpt lat="45.41032" lon="4.22715">
        <ele>753.6</ele>
        <time>2021-06-15T13:36:48Z</time>
      </trkpt>
      <trkpt lat="45.41043" lon="4.22682">
        <ele>759.4</ele>
        <time>2021-06-15T13:55:13Z</time>
      </trkpt>
      <trkpt lat="45.41043" lon="4.22683">
        <ele>759.4</ele>
        <time>2021-06-15T13:55:15Z</time>
      </trkpt>
      <trkpt lat="45.41041" lon="4.22686">
        <ele>759.4</ele>
        <time>2021-06-15T13:55:17Z</time>
      </trkpt>
      <trkpt lat="45.41039" lon="4.22692">
        <ele>759</ele>
        <time>2021-06-15T13:55:20Z</time>
      </trkpt>
      <trkpt lat="45.41043" lon="4.22696">
        <ele>757.8</ele>
        <time>2021-06-15T13:55:23Z</time>
      </trkpt>
      <trkpt lat="45.41044" lon="4.22696">
        <ele>757.6</ele>
        <time>2021-06-15T13:55:24Z</time>
      </trkpt>
      <trkpt lat="45.41045" lon="4.22698">
        <ele>757.4</ele>
        <time>2021-06-15T13:55:25Z</time>
      </trkpt>
      <trkpt lat="45.41051" lon="4.22707">
        <ele>756.2</ele>
        <time>2021-06-15T13:55:29Z</time>
      </trkpt>
      <trkpt lat="45.41054" lon="4.22718">
        <ele>755</ele>
        <time>2021-06-15T13:55:32Z</time>
      </trkpt>
      <trkpt lat="45.41055" lon="4.22723">
        <ele>754.2</ele>
        <time>2021-06-15T13:55:33Z</time>
      </trkpt>
      <trkpt lat="45.41057" lon="4.22728">
        <ele>753.2</ele>
        <time>2021-06-15T13:55:34Z</time>
      </trkpt>
      <trkpt lat="45.41061" lon="4.22736">
        <ele>751.4</ele>
        <time>2021-06-15T13:55:36Z</time>
      </trkpt>
      <trkpt lat="45.41063" lon="4.22742">
        <ele>750</ele>
        <time>2021-06-15T13:55:38Z</time>
      </trkpt>
      <trkpt lat="45.41064" lon="4.22744">
        <ele>749.6</ele>
        <time>2021-06-15T13:55:39Z</time>
      </trkpt>
      <trkpt lat="45.41064" lon="4.22749">
        <ele>748.6</ele>
        <time>2021-06-15T13:55:41Z</time>
      </trkpt>
      <trkpt lat="45.41064" lon="4.22752">
        <ele>748.2</ele>
        <time>2021-06-15T13:55:42Z</time>
      </trkpt>
      <trkpt lat="45.41064" lon="4.22755">
        <ele>747.6</ele>
        <time>2021-06-15T13:55:43Z</time>
      </trkpt>
      <trkpt lat="45.41064" lon="4.2276">
        <ele>747</ele>
        <time>2021-06-15T13:55:44Z</time>
      </trkpt>
      <trkpt lat="45.41062" lon="4.22767">
        <ele>746.4</ele>
        <time>2021-06-15T13:55:46Z</time>
      </trkpt>
      <trkpt lat="45.4106" lon="4.22773">
        <ele>745.8</ele>
        <time>2021-06-15T13:55:48Z</time>
      </trkpt>
      <trkpt lat="45.4106" lon="4.22774">
        <ele>745.4</ele>
        <time>2021-06-15T13:55:49Z</time>
      </trkpt>
      <trkpt lat="45.41061" lon="4.22774">
        <ele>744.8</ele>
        <time>2021-06-15T13:55:50Z</time>
      </trkpt>
      <trkpt lat="45.41062" lon="4.22775">
        <ele>744.2</ele>
        <time>2021-06-15T13:55:51Z</time>
      </trkpt>
      <trkpt lat="45.41064" lon="4.22779">
        <ele>743</ele>
        <time>2021-06-15T13:55:53Z</time>
      </trkpt>
      <trkpt lat="45.41066" lon="4.22785">
        <ele>741.6</ele>
        <time>2021-06-15T13:55:55Z</time>
      </trkpt>
      <trkpt lat="45.41065" lon="4.22789">
        <ele>741</ele>
        <time>2021-06-15T13:55:56Z</time>
      </trkpt>
      <trkpt lat="45.41064" lon="4.22795">
        <ele>740.4</ele>
        <time>2021-06-15T13:55:58Z</time>
      </trkpt>
      <trkpt lat="45.41063" lon="4.228">
        <ele>740</ele>
        <time>2021-06-15T13:56:00Z</time>
      </trkpt>
      <trkpt lat="45.41064" lon="4.22802">
        <ele>739.8</ele>
        <time>2021-06-15T13:56:01Z</time>
      </trkpt>
      <trkpt lat="45.41065" lon="4.22803">
        <ele>739.8</ele>
        <time>2021-06-15T13:56:02Z</time>
      </trkpt>
      <trkpt lat="45.41066" lon="4.22805">
        <ele>739.4</ele>
        <time>2021-06-15T13:56:03Z</time>
      </trkpt>
      <trkpt lat="45.41071" lon="4.22806">
        <ele>738</ele>
        <time>2021-06-15T13:56:06Z</time>
      </trkpt>
      <trkpt lat="45.41073" lon="4.22807">
        <ele>737.4</ele>
        <time>2021-06-15T13:56:07Z</time>
      </trkpt>
      <trkpt lat="45.41075" lon="4.22809">
        <ele>736.6</ele>
        <time>2021-06-15T13:56:08Z</time>
      </trkpt>
      <trkpt lat="45.41077" lon="4.22811">
        <ele>736</ele>
        <time>2021-06-15T13:56:09Z</time>
      </trkpt>
      <trkpt lat="45.41079" lon="4.22814">
        <ele>735.2</ele>
        <time>2021-06-15T13:56:10Z</time>
      </trkpt>
      <trkpt lat="45.41081" lon="4.22815">
        <ele>734.6</ele>
        <time>2021-06-15T13:56:11Z</time>
      </trkpt>
      <trkpt lat="45.41081" lon="4.22816">
        <ele>734</ele>
        <time>2021-06-15T13:56:12Z</time>
      </trkpt>
      <trkpt lat="45.41082" lon="4.22817">
        <ele>733.6</ele>
        <time>2021-06-15T13:56:13Z</time>
      </trkpt>
      <trkpt lat="45.41083" lon="4.22817">
        <ele>733.2</ele>
        <time>2021-06-15T13:56:15Z</time>
      </trkpt>
      <trkpt lat="45.41083" lon="4.22818">
        <ele>733</ele>
        <time>2021-06-15T13:56:16Z</time>
      </trkpt>
      <trkpt lat="45.41083" lon="4.2282">
        <ele>732.6</ele>
        <time>2021-06-15T13:56:18Z</time>
      </trkpt>
      <trkpt lat="45.41084" lon="4.22824">
        <ele>732.4</ele>
        <time>2021-06-15T13:56:23Z</time>
      </trkpt>
      <trkpt lat="45.41084" lon="4.22826">
        <ele>732.2</ele>
        <time>2021-06-15T13:56:33Z</time>
      </trkpt>
      <trkpt lat="45.41083" lon="4.22827">
        <ele>731.8</ele>
        <time>2021-06-15T13:56:37Z</time>
      </trkpt>
      <trkpt lat="45.41083" lon="4.22828">
        <ele>731.8</ele>
        <time>2021-06-15T13:56:43Z</time>
      </trkpt>
      <trkpt lat="45.41089" lon="4.22831">
        <ele>731</ele>
        <time>2021-06-15T13:56:53Z</time>
      </trkpt>
      <trkpt lat="45.4109" lon="4.22833">
        <ele>730.8</ele>
        <time>2021-06-15T13:56:56Z</time>
      </trkpt>
      <trkpt lat="45.41088" lon="4.22835">
        <ele>730.8</ele>
        <time>2021-06-15T13:57:03Z</time>
      </trkpt>
      <trkpt lat="45.41083" lon="4.22838">
        <ele>731.4</ele>
        <time>2021-06-15T13:57:13Z</time>
      </trkpt>
      <trkpt lat="45.41082" lon="4.22834">
        <ele>731.8</ele>
        <time>2021-06-15T13:57:22Z</time>
      </trkpt>
      <trkpt lat="45.41082" lon="4.22833">
        <ele>731.8</ele>
        <time>2021-06-15T13:57:23Z</time>
      </trkpt>
      <trkpt lat="45.41083" lon="4.2283">
        <ele>732</ele>
        <time>2021-06-15T13:57:27Z</time>
      </trkpt>
      <trkpt lat="45.4108" lon="4.22824">
        <ele>732.4</ele>
        <time>2021-06-15T13:57:33Z</time>
      </trkpt>
      <trkpt lat="45.4108" lon="4.22822">
        <ele>732.8</ele>
        <time>2021-06-15T13:57:43Z</time>
      </trkpt>
      <trkpt lat="45.41079" lon="4.22827">
        <ele>732.4</ele>
        <time>2021-06-15T13:57:53Z</time>
      </trkpt>
      <trkpt lat="45.4108" lon="4.22833">
        <ele>732</ele>
        <time>2021-06-15T13:57:55Z</time>
      </trkpt>
      <trkpt lat="45.41084" lon="4.22837">
        <ele>730.8</ele>
        <time>2021-06-15T13:57:57Z</time>
      </trkpt>
      <trkpt lat="45.4109" lon="4.22839">
        <ele>729.6</ele>
        <time>2021-06-15T13:58:00Z</time>
      </trkpt>
      <trkpt lat="45.41091" lon="4.22839">
        <ele>729.4</ele>
        <time>2021-06-15T13:58:03Z</time>
      </trkpt>
      <trkpt lat="45.41094" lon="4.22838">
        <ele>729</ele>
        <time>2021-06-15T13:58:12Z</time>
      </trkpt>
      <trkpt lat="45.41095" lon="4.22837">
        <ele>728.8</ele>
        <time>2021-06-15T13:58:13Z</time>
      </trkpt>
      <trkpt lat="45.411" lon="4.22841">
        <ele>728.6</ele>
        <time>2021-06-15T13:58:20Z</time>
      </trkpt>
      <trkpt lat="45.41102" lon="4.22841">
        <ele>728.6</ele>
        <time>2021-06-15T13:58:21Z</time>
      </trkpt>
      <trkpt lat="45.41107" lon="4.22843">
        <ele>728.4</ele>
        <time>2021-06-15T13:58:23Z</time>
      </trkpt>
      <trkpt lat="45.41108" lon="4.22845">
        <ele>728.4</ele>
        <time>2021-06-15T13:58:24Z</time>
      </trkpt>
      <trkpt lat="45.41111" lon="4.22854">
        <ele>727.6</ele>
        <time>2021-06-15T13:58:27Z</time>
      </trkpt>
      <trkpt lat="45.41113" lon="4.22858">
        <ele>725.6</ele>
        <time>2021-06-15T13:58:29Z</time>
      </trkpt>
      <trkpt lat="45.41114" lon="4.2286">
        <ele>724.6</ele>
        <time>2021-06-15T13:58:30Z</time>
      </trkpt>
      <trkpt lat="45.41115" lon="4.22863">
        <ele>723.6</ele>
        <time>2021-06-15T13:58:31Z</time>
      </trkpt>
      <trkpt lat="45.41119" lon="4.22868">
        <ele>721.8</ele>
        <time>2021-06-15T13:58:33Z</time>
      </trkpt>
      <trkpt lat="45.41121" lon="4.22871">
        <ele>720.2</ele>
        <time>2021-06-15T13:58:35Z</time>
      </trkpt>
      <trkpt lat="45.41123" lon="4.22875">
        <ele>718.6</ele>
        <time>2021-06-15T13:58:37Z</time>
      </trkpt>
      <trkpt lat="45.41127" lon="4.22878">
        <ele>717.6</ele>
        <time>2021-06-15T13:58:39Z</time>
      </trkpt>
      <trkpt lat="45.41128" lon="4.2288">
        <ele>716.8</ele>
        <time>2021-06-15T13:58:40Z</time>
      </trkpt>
      <trkpt lat="45.41129" lon="4.22883">
        <ele>716.2</ele>
        <time>2021-06-15T13:58:41Z</time>
      </trkpt>
      <trkpt lat="45.41129" lon="4.2289">
        <ele>714.8</ele>
        <time>2021-06-15T13:58:43Z</time>
      </trkpt>
      <trkpt lat="45.41129" lon="4.22896">
        <ele>713.2</ele>
        <time>2021-06-15T13:58:45Z</time>
      </trkpt>
      <trkpt lat="45.41128" lon="4.22902">
        <ele>711.8</ele>
        <time>2021-06-15T13:58:47Z</time>
      </trkpt>
      <trkpt lat="45.41127" lon="4.22907">
        <ele>710</ele>
        <time>2021-06-15T13:58:49Z</time>
      </trkpt>
      <trkpt lat="45.41126" lon="4.22909">
        <ele>709.2</ele>
        <time>2021-06-15T13:58:50Z</time>
      </trkpt>
      <trkpt lat="45.41126" lon="4.22912">
        <ele>708.8</ele>
        <time>2021-06-15T13:58:51Z</time>
      </trkpt>
      <trkpt lat="45.41127" lon="4.2292">
        <ele>708.2</ele>
        <time>2021-06-15T13:58:53Z</time>
      </trkpt>
      <trkpt lat="45.41129" lon="4.22926">
        <ele>707.6</ele>
        <time>2021-06-15T13:58:54Z</time>
      </trkpt>
      <trkpt lat="45.41133" lon="4.22936">
        <ele>706.2</ele>
        <time>2021-06-15T13:58:56Z</time>
      </trkpt>
      <trkpt lat="45.41136" lon="4.22944">
        <ele>704.8</ele>
        <time>2021-06-15T13:58:58Z</time>
      </trkpt>
      <trkpt lat="45.41139" lon="4.22951">
        <ele>703</ele>
        <time>2021-06-15T13:59:00Z</time>
      </trkpt>
      <trkpt lat="45.41142" lon="4.22961">
        <ele>701.8</ele>
        <time>2021-06-15T13:59:02Z</time>
      </trkpt>
      <trkpt lat="45.41143" lon="4.22966">
        <ele>701.2</ele>
        <time>2021-06-15T13:59:03Z</time>
      </trkpt>
      <trkpt lat="45.41144" lon="4.22971">
        <ele>700.4</ele>
        <time>2021-06-15T13:59:04Z</time>
      </trkpt>
      <trkpt lat="45.41143" lon="4.22983">
        <ele>698.2</ele>
        <time>2021-06-15T13:59:06Z</time>
      </trkpt>
      <trkpt lat="45.41142" lon="4.22989">
        <ele>697</ele>
        <time>2021-06-15T13:59:07Z</time>
      </trkpt>
      <trkpt lat="45.41139" lon="4.23004">
        <ele>695.6</ele>
        <time>2021-06-15T13:59:09Z</time>
      </trkpt>
      <trkpt lat="45.41136" lon="4.23017">
        <ele>694.2</ele>
        <time>2021-06-15T13:59:11Z</time>
      </trkpt>
      <trkpt lat="45.41134" lon="4.23021">
        <ele>693</ele>
        <time>2021-06-15T13:59:12Z</time>
      </trkpt>
      <trkpt lat="45.41133" lon="4.23024">
        <ele>692.2</ele>
        <time>2021-06-15T13:59:13Z</time>
      </trkpt>
      <trkpt lat="45.41132" lon="4.23025">
        <ele>691.6</ele>
        <time>2021-06-15T13:59:14Z</time>
      </trkpt>
      <trkpt lat="45.41132" lon="4.23026">
        <ele>691.2</ele>
        <time>2021-06-15T13:59:15Z</time>
      </trkpt>
      <trkpt lat="45.41131" lon="4.23027">
        <ele>690.6</ele>
        <time>2021-06-15T13:59:18Z</time>
      </trkpt>
      <trkpt lat="45.41129" lon="4.2303">
        <ele>689.8</ele>
        <time>2021-06-15T13:59:20Z</time>
      </trkpt>
      <trkpt lat="45.41128" lon="4.23033">
        <ele>689</ele>
        <time>2021-06-15T13:59:21Z</time>
      </trkpt>
      <trkpt lat="45.41125" lon="4.23038">
        <ele>687.2</ele>
        <time>2021-06-15T13:59:23Z</time>
      </trkpt>
      <trkpt lat="45.41122" lon="4.23041">
        <ele>685.4</ele>
        <time>2021-06-15T13:59:25Z</time>
      </trkpt>
      <trkpt lat="45.41121" lon="4.23041">
        <ele>684.2</ele>
        <time>2021-06-15T13:59:27Z</time>
      </trkpt>
      <trkpt lat="45.41119" lon="4.23041">
        <ele>683.6</ele>
        <time>2021-06-15T13:59:29Z</time>
      </trkpt>
      <trkpt lat="45.41119" lon="4.23043">
        <ele>683</ele>
        <time>2021-06-15T13:59:33Z</time>
      </trkpt>
      <trkpt lat="45.4112" lon="4.23046">
        <ele>682</ele>
        <time>2021-06-15T13:59:37Z</time>
      </trkpt>
      <trkpt lat="45.41123" lon="4.23052">
        <ele>681.6</ele>
        <time>2021-06-15T13:59:40Z</time>
      </trkpt>
      <trkpt lat="45.41124" lon="4.23057">
        <ele>681</ele>
        <time>2021-06-15T13:59:43Z</time>
      </trkpt>
      <trkpt lat="45.41124" lon="4.23065">
        <ele>679.6</ele>
        <time>2021-06-15T13:59:46Z</time>
      </trkpt>
      <trkpt lat="45.41123" lon="4.23071">
        <ele>678.2</ele>
        <time>2021-06-15T13:59:48Z</time>
      </trkpt>
      <trkpt lat="45.41122" lon="4.23077">
        <ele>676.2</ele>
        <time>2021-06-15T13:59:50Z</time>
      </trkpt>
      <trkpt lat="45.41122" lon="4.2308">
        <ele>675.4</ele>
        <time>2021-06-15T13:59:51Z</time>
      </trkpt>
      <trkpt lat="45.41122" lon="4.23082">
        <ele>674.8</ele>
        <time>2021-06-15T13:59:52Z</time>
      </trkpt>
      <trkpt lat="45.41121" lon="4.23085">
        <ele>674.2</ele>
        <time>2021-06-15T13:59:53Z</time>
      </trkpt>
      <trkpt lat="45.41121" lon="4.23087">
        <ele>673.4</ele>
        <time>2021-06-15T13:59:54Z</time>
      </trkpt>
      <trkpt lat="45.4112" lon="4.23093">
        <ele>671.8</ele>
        <time>2021-06-15T13:59:56Z</time>
      </trkpt>
      <trkpt lat="45.4112" lon="4.23096">
        <ele>670.8</ele>
        <time>2021-06-15T13:59:57Z</time>
      </trkpt>
      <trkpt lat="45.41119" lon="4.23098">
        <ele>669.6</ele>
        <time>2021-06-15T13:59:58Z</time>
      </trkpt>
      <trkpt lat="45.41119" lon="4.23099">
        <ele>668.6</ele>
        <time>2021-06-15T13:59:59Z</time>
      </trkpt>
      <trkpt lat="45.41118" lon="4.231">
        <ele>667.6</ele>
        <time>2021-06-15T14:00:00Z</time>
      </trkpt>
      <trkpt lat="45.41117" lon="4.23101">
        <ele>666.6</ele>
        <time>2021-06-15T14:00:01Z</time>
      </trkpt>
      <trkpt lat="45.41117" lon="4.23103">
        <ele>665.6</ele>
        <time>2021-06-15T14:00:02Z</time>
      </trkpt>
      <trkpt lat="45.41116" lon="4.23104">
        <ele>665</ele>
        <time>2021-06-15T14:00:03Z</time>
      </trkpt>
      <trkpt lat="45.41116" lon="4.23108">
        <ele>664.4</ele>
        <time>2021-06-15T14:00:05Z</time>
      </trkpt>
      <trkpt lat="45.41117" lon="4.23111">
        <ele>664.2</ele>
        <time>2021-06-15T14:00:06Z</time>
      </trkpt>
      <trkpt lat="45.41117" lon="4.23115">
        <ele>664</ele>
        <time>2021-06-15T14:00:07Z</time>
      </trkpt>
      <trkpt lat="45.41118" lon="4.23119">
        <ele>663.8</ele>
        <time>2021-06-15T14:00:08Z</time>
      </trkpt>
      <trkpt lat="45.41118" lon="4.23122">
        <ele>663.6</ele>
        <time>2021-06-15T14:00:09Z</time>
      </trkpt>
      <trkpt lat="45.41117" lon="4.23124">
        <ele>662.6</ele>
        <time>2021-06-15T14:00:11Z</time>
      </trkpt>
      <trkpt lat="45.41116" lon="4.23127">
        <ele>661.2</ele>
        <time>2021-06-15T14:00:13Z</time>
      </trkpt>
      <trkpt lat="45.41115" lon="4.23129">
        <ele>660.6</ele>
        <time>2021-06-15T14:00:14Z</time>
      </trkpt>
      <trkpt lat="45.41114" lon="4.23135">
        <ele>659.8</ele>
        <time>2021-06-15T14:00:16Z</time>
      </trkpt>
      <trkpt lat="45.41112" lon="4.23138">
        <ele>659.2</ele>
        <time>2021-06-15T14:00:17Z</time>
      </trkpt>
      <trkpt lat="45.41112" lon="4.2314">
        <ele>658.6</ele>
        <time>2021-06-15T14:00:18Z</time>
      </trkpt>
      <trkpt lat="45.41111" lon="4.23144">
        <ele>656.8</ele>
        <time>2021-06-15T14:00:20Z</time>
      </trkpt>
      <trkpt lat="45.4111" lon="4.23149">
        <ele>655.6</ele>
        <time>2021-06-15T14:00:22Z</time>
      </trkpt>
      <trkpt lat="45.41109" lon="4.23153">
        <ele>654.8</ele>
        <time>2021-06-15T14:00:23Z</time>
      </trkpt>
      <trkpt lat="45.41109" lon="4.23155">
        <ele>654.4</ele>
        <time>2021-06-15T14:00:24Z</time>
      </trkpt>
      <trkpt lat="45.41108" lon="4.23159">
        <ele>652.8</ele>
        <time>2021-06-15T14:00:26Z</time>
      </trkpt>
      <trkpt lat="45.41107" lon="4.23162">
        <ele>651.8</ele>
        <time>2021-06-15T14:00:27Z</time>
      </trkpt>
      <trkpt lat="45.41107" lon="4.2317">
        <ele>650.2</ele>
        <time>2021-06-15T14:00:29Z</time>
      </trkpt>
      <trkpt lat="45.41107" lon="4.23174">
        <ele>648.6</ele>
        <time>2021-06-15T14:00:31Z</time>
      </trkpt>
      <trkpt lat="45.41106" lon="4.23178">
        <ele>647.2</ele>
        <time>2021-06-15T14:00:33Z</time>
      </trkpt>
      <trkpt lat="45.41105" lon="4.23178">
        <ele>646</ele>
        <time>2021-06-15T14:00:35Z</time>
      </trkpt>
      <trkpt lat="45.41103" lon="4.23184">
        <ele>645.4</ele>
        <time>2021-06-15T14:00:41Z</time>
      </trkpt>
      <trkpt lat="45.41102" lon="4.23188">
        <ele>645.2</ele>
        <time>2021-06-15T14:00:43Z</time>
      </trkpt>
      <trkpt lat="45.41102" lon="4.23191">
        <ele>645.2</ele>
        <time>2021-06-15T14:00:46Z</time>
      </trkpt>
      <trkpt lat="45.41098" lon="4.23196">
        <ele>645.2</ele>
        <time>2021-06-15T14:00:53Z</time>
      </trkpt>
      <trkpt lat="45.41103" lon="4.23188">
        <ele>645</ele>
        <time>2021-06-15T14:01:03Z</time>
      </trkpt>
      <trkpt lat="45.41103" lon="4.23185">
        <ele>645.2</ele>
        <time>2021-06-15T14:01:08Z</time>
      </trkpt>
      <trkpt lat="45.41108" lon="4.23182">
        <ele>645.2</ele>
        <time>2021-06-15T14:01:13Z</time>
      </trkpt>
      <trkpt lat="45.4111" lon="4.23182">
        <ele>645.2</ele>
        <time>2021-06-15T14:01:15Z</time>
      </trkpt>
      <trkpt lat="45.41111" lon="4.23182">
        <ele>645.2</ele>
        <time>2021-06-15T14:01:16Z</time>
      </trkpt>
      <trkpt lat="45.41111" lon="4.23182">
        <ele>645</ele>
        <time>2021-06-15T14:01:17Z</time>
      </trkpt>
      <trkpt lat="45.41111" lon="4.23182">
        <ele>645</ele>
        <time>2021-06-15T14:01:18Z</time>
      </trkpt>
      <trkpt lat="45.41111" lon="4.23182">
        <ele>645</ele>
        <time>2021-06-15T14:01:19Z</time>
      </trkpt>
      <trkpt lat="45.41112" lon="4.23183">
        <ele>645</ele>
        <time>2021-06-15T14:01:23Z</time>
      </trkpt>
      <trkpt lat="45.41111" lon="4.23186">
        <ele>644.8</ele>
        <time>2021-06-15T14:01:30Z</time>
      </trkpt>
      <trkpt lat="45.41111" lon="4.23188">
        <ele>644.8</ele>
        <time>2021-06-15T14:01:33Z</time>
      </trkpt>
      <trkpt lat="45.41109" lon="4.23188">
        <ele>645.2</ele>
        <time>2021-06-15T14:01:40Z</time>
      </trkpt>
      <trkpt lat="45.41109" lon="4.23188">
        <ele>645.2</ele>
        <time>2021-06-15T14:01:43Z</time>
      </trkpt>
      <trkpt lat="45.4111" lon="4.23187">
        <ele>645.2</ele>
        <time>2021-06-15T14:01:46Z</time>
      </trkpt>
      <trkpt lat="45.41108" lon="4.2319">
        <ele>645.2</ele>
        <time>2021-06-15T14:01:50Z</time>
      </trkpt>
      <trkpt lat="45.41106" lon="4.23192">
        <ele>645.2</ele>
        <time>2021-06-15T14:01:53Z</time>
      </trkpt>
      <trkpt lat="45.41106" lon="4.23192">
        <ele>645.2</ele>
        <time>2021-06-15T14:01:54Z</time>
      </trkpt>
      <trkpt lat="45.41106" lon="4.23191">
        <ele>645.2</ele>
        <time>2021-06-15T14:01:56Z</time>
      </trkpt>
      <trkpt lat="45.41107" lon="4.2319">
        <ele>645.2</ele>
        <time>2021-06-15T14:02:03Z</time>
      </trkpt>
      <trkpt lat="45.41107" lon="4.2319">
        <ele>645.2</ele>
        <time>2021-06-15T14:02:12Z</time>
      </trkpt>
      <trkpt lat="45.41107" lon="4.2319">
        <ele>645.2</ele>
        <time>2021-06-15T14:02:13Z</time>
      </trkpt>
      <trkpt lat="45.41106" lon="4.23191">
        <ele>645.2</ele>
        <time>2021-06-15T14:02:21Z</time>
      </trkpt>
      <trkpt lat="45.41106" lon="4.23192">
        <ele>645.2</ele>
        <time>2021-06-15T14:02:23Z</time>
      </trkpt>
      <trkpt lat="45.41107" lon="4.23193">
        <ele>645.2</ele>
        <time>2021-06-15T14:02:31Z</time>
      </trkpt>
      <trkpt lat="45.41108" lon="4.23193">
        <ele>645.2</ele>
        <time>2021-06-15T14:02:33Z</time>
      </trkpt>
      <trkpt lat="45.41107" lon="4.23191">
        <ele>645.2</ele>
        <time>2021-06-15T14:02:43Z</time>
      </trkpt>
      <trkpt lat="45.41108" lon="4.2319">
        <ele>645.2</ele>
        <time>2021-06-15T14:02:50Z</time>
      </trkpt>
      <trkpt lat="45.41108" lon="4.23188">
        <ele>645.2</ele>
        <time>2021-06-15T14:02:53Z</time>
      </trkpt>
      <trkpt lat="45.41107" lon="4.23186">
        <ele>645.2</ele>
        <time>2021-06-15T14:03:00Z</time>
      </trkpt>
      <trkpt lat="45.41107" lon="4.23185">
        <ele>645.2</ele>
        <time>2021-06-15T14:03:01Z</time>
      </trkpt>
      <trkpt lat="45.41107" lon="4.23183">
        <ele>645.2</ele>
        <time>2021-06-15T14:03:02Z</time>
      </trkpt>
      <trkpt lat="45.41107" lon="4.23182">
        <ele>645.2</ele>
        <time>2021-06-15T14:03:03Z</time>
      </trkpt>
      <trkpt lat="45.41106" lon="4.2318">
        <ele>645.2</ele>
        <time>2021-06-15T14:03:05Z</time>
      </trkpt>
      <trkpt lat="45.41105" lon="4.23179">
        <ele>645.2</ele>
        <time>2021-06-15T14:03:06Z</time>
      </trkpt>
      <trkpt lat="45.41104" lon="4.23178">
        <ele>645.2</ele>
        <time>2021-06-15T14:03:07Z</time>
      </trkpt>
      <trkpt lat="45.41103" lon="4.23177">
        <ele>645.2</ele>
        <time>2021-06-15T14:03:08Z</time>
      </trkpt>
      <trkpt lat="45.41103" lon="4.23177">
        <ele>645.2</ele>
        <time>2021-06-15T14:03:09Z</time>
      </trkpt>
      <trkpt lat="45.41105" lon="4.23178">
        <ele>645.2</ele>
        <time>2021-06-15T14:03:13Z</time>
      </trkpt>
      <trkpt lat="45.41105" lon="4.2318">
        <ele>645.2</ele>
        <time>2021-06-15T14:03:16Z</time>
      </trkpt>
      <trkpt lat="45.41105" lon="4.23181">
        <ele>645.2</ele>
        <time>2021-06-15T14:03:19Z</time>
      </trkpt>
      <trkpt lat="45.41106" lon="4.23182">
        <ele>645.2</ele>
        <time>2021-06-15T14:03:23Z</time>
      </trkpt>
      <trkpt lat="45.41107" lon="4.23186">
        <ele>645.2</ele>
        <time>2021-06-15T14:03:31Z</time>
      </trkpt>
      <trkpt lat="45.41107" lon="4.23187">
        <ele>645.2</ele>
        <time>2021-06-15T14:03:33Z</time>
      </trkpt>
      <trkpt lat="45.41103" lon="4.2319">
        <ele>645.2</ele>
        <time>2021-06-15T14:03:43Z</time>
      </trkpt>
      <trkpt lat="45.41101" lon="4.23191">
        <ele>645.2</ele>
        <time>2021-06-15T14:03:49Z</time>
      </trkpt>
      <trkpt lat="45.41103" lon="4.23193">
        <ele>645.2</ele>
        <time>2021-06-15T14:03:53Z</time>
      </trkpt>
      <trkpt lat="45.41105" lon="4.23195">
        <ele>645.2</ele>
        <time>2021-06-15T14:03:58Z</time>
      </trkpt>
      <trkpt lat="45.41105" lon="4.23194">
        <ele>645.2</ele>
        <time>2021-06-15T14:04:03Z</time>
      </trkpt>
      <trkpt lat="45.41105" lon="4.23191">
        <ele>645.2</ele>
        <time>2021-06-15T14:04:13Z</time>
      </trkpt>
      <trkpt lat="45.41106" lon="4.23191">
        <ele>645.2</ele>
        <time>2021-06-15T14:04:14Z</time>
      </trkpt>
      <trkpt lat="45.41106" lon="4.23191">
        <ele>645.2</ele>
        <time>2021-06-15T14:04:15Z</time>
      </trkpt>
      <trkpt lat="45.41106" lon="4.23194">
        <ele>645.2</ele>
        <time>2021-06-15T14:04:23Z</time>
      </trkpt>
      <trkpt lat="45.41107" lon="4.23187">
        <ele>645.2</ele>
        <time>2021-06-15T14:04:33Z</time>
      </trkpt>
      <trkpt lat="45.41108" lon="4.23185">
        <ele>645.2</ele>
        <time>2021-06-15T14:04:43Z</time>
      </trkpt>
      <trkpt lat="45.41102" lon="4.23184">
        <ele>645.2</ele>
        <time>2021-06-15T14:04:53Z</time>
      </trkpt>
      <trkpt lat="45.41101" lon="4.23184">
        <ele>645.2</ele>
        <time>2021-06-15T14:04:58Z</time>
      </trkpt>
      <trkpt lat="45.41109" lon="4.23196">
        <ele>645.2</ele>
        <time>2021-06-15T14:05:49Z</time>
      </trkpt>
      <trkpt lat="45.41109" lon="4.23197">
        <ele>644.8</ele>
        <time>2021-06-15T14:05:51Z</time>
      </trkpt>
      <trkpt lat="45.4111" lon="4.23198">
        <ele>644.8</ele>
        <time>2021-06-15T14:05:52Z</time>
      </trkpt>
      <trkpt lat="45.41111" lon="4.232">
        <ele>644.6</ele>
        <time>2021-06-15T14:05:53Z</time>
      </trkpt>
      <trkpt lat="45.41112" lon="4.23201">
        <ele>644.4</ele>
        <time>2021-06-15T14:05:54Z</time>
      </trkpt>
      <trkpt lat="45.41113" lon="4.23213">
        <ele>644</ele>
        <time>2021-06-15T14:05:58Z</time>
      </trkpt>
      <trkpt lat="45.41113" lon="4.23215">
        <ele>643.4</ele>
        <time>2021-06-15T14:05:59Z</time>
      </trkpt>
      <trkpt lat="45.41114" lon="4.23222">
        <ele>641.6</ele>
        <time>2021-06-15T14:06:01Z</time>
      </trkpt>
      <trkpt lat="45.41113" lon="4.23224">
        <ele>640.6</ele>
        <time>2021-06-15T14:06:02Z</time>
      </trkpt>
      <trkpt lat="45.41113" lon="4.23226">
        <ele>639.6</ele>
        <time>2021-06-15T14:06:03Z</time>
      </trkpt>
      <trkpt lat="45.41113" lon="4.23229">
        <ele>638.8</ele>
        <time>2021-06-15T14:06:04Z</time>
      </trkpt>
      <trkpt lat="45.41113" lon="4.23231">
        <ele>638.2</ele>
        <time>2021-06-15T14:06:05Z</time>
      </trkpt>
      <trkpt lat="45.41113" lon="4.23233">
        <ele>637.6</ele>
        <time>2021-06-15T14:06:06Z</time>
      </trkpt>
      <trkpt lat="45.41115" lon="4.23237">
        <ele>636.2</ele>
        <time>2021-06-15T14:06:08Z</time>
      </trkpt>
      <trkpt lat="45.41116" lon="4.2324">
        <ele>635</ele>
        <time>2021-06-15T14:06:10Z</time>
      </trkpt>
      <trkpt lat="45.41116" lon="4.23242">
        <ele>634.6</ele>
        <time>2021-06-15T14:06:13Z</time>
      </trkpt>
      <trkpt lat="45.41116" lon="4.23243">
        <ele>634.6</ele>
        <time>2021-06-15T14:06:15Z</time>
      </trkpt>
      <trkpt lat="45.41116" lon="4.23244">
        <ele>634.6</ele>
        <time>2021-06-15T14:06:17Z</time>
      </trkpt>
      <trkpt lat="45.41119" lon="4.23249">
        <ele>634</ele>
        <time>2021-06-15T14:06:23Z</time>
      </trkpt>
      <trkpt lat="45.41116" lon="4.23253">
        <ele>632.8</ele>
        <time>2021-06-15T14:06:27Z</time>
      </trkpt>
      <trkpt lat="45.41114" lon="4.23257">
        <ele>631.4</ele>
        <time>2021-06-15T14:06:29Z</time>
      </trkpt>
      <trkpt lat="45.41111" lon="4.23265">
        <ele>629.8</ele>
        <time>2021-06-15T14:06:31Z</time>
      </trkpt>
      <trkpt lat="45.4111" lon="4.23269">
        <ele>629</ele>
        <time>2021-06-15T14:06:32Z</time>
      </trkpt>
      <trkpt lat="45.41109" lon="4.23271">
        <ele>628.4</ele>
        <time>2021-06-15T14:06:33Z</time>
      </trkpt>
      <trkpt lat="45.41106" lon="4.23274">
        <ele>626.6</ele>
        <time>2021-06-15T14:06:35Z</time>
      </trkpt>
      <trkpt lat="45.41104" lon="4.23276">
        <ele>625.6</ele>
        <time>2021-06-15T14:06:36Z</time>
      </trkpt>
      <trkpt lat="45.41103" lon="4.23276">
        <ele>624.8</ele>
        <time>2021-06-15T14:06:37Z</time>
      </trkpt>
      <trkpt lat="45.411" lon="4.2328">
        <ele>623.2</ele>
        <time>2021-06-15T14:06:39Z</time>
      </trkpt>
      <trkpt lat="45.41099" lon="4.23282">
        <ele>622.4</ele>
        <time>2021-06-15T14:06:40Z</time>
      </trkpt>
      <trkpt lat="45.41097" lon="4.23285">
        <ele>621.4</ele>
        <time>2021-06-15T14:06:41Z</time>
      </trkpt>
      <trkpt lat="45.41096" lon="4.23287">
        <ele>620.6</ele>
        <time>2021-06-15T14:06:42Z</time>
      </trkpt>
      <trkpt lat="45.41095" lon="4.23291">
        <ele>620</ele>
        <time>2021-06-15T14:06:43Z</time>
      </trkpt>
      <trkpt lat="45.41095" lon="4.23295">
        <ele>619.4</ele>
        <time>2021-06-15T14:06:44Z</time>
      </trkpt>
      <trkpt lat="45.41094" lon="4.23298">
        <ele>618.8</ele>
        <time>2021-06-15T14:06:45Z</time>
      </trkpt>
      <trkpt lat="45.41093" lon="4.23302">
        <ele>617.2</ele>
        <time>2021-06-15T14:06:47Z</time>
      </trkpt>
      <trkpt lat="45.41088" lon="4.23306">
        <ele>615.8</ele>
        <time>2021-06-15T14:06:49Z</time>
      </trkpt>
      <trkpt lat="45.41084" lon="4.23311">
        <ele>614.6</ele>
        <time>2021-06-15T14:06:51Z</time>
      </trkpt>
      <trkpt lat="45.41081" lon="4.23313">
        <ele>613.2</ele>
        <time>2021-06-15T14:06:53Z</time>
      </trkpt>
      <trkpt lat="45.41078" lon="4.23314">
        <ele>611.8</ele>
        <time>2021-06-15T14:06:56Z</time>
      </trkpt>
      <trkpt lat="45.41076" lon="4.23313">
        <ele>610.8</ele>
        <time>2021-06-15T14:06:57Z</time>
      </trkpt>
      <trkpt lat="45.41074" lon="4.23312">
        <ele>609.4</ele>
        <time>2021-06-15T14:06:58Z</time>
      </trkpt>
      <trkpt lat="45.41072" lon="4.2331">
        <ele>607.8</ele>
        <time>2021-06-15T14:06:59Z</time>
      </trkpt>
      <trkpt lat="45.41068" lon="4.23308">
        <ele>606.6</ele>
        <time>2021-06-15T14:07:00Z</time>
      </trkpt>
      <trkpt lat="45.41063" lon="4.23307">
        <ele>606</ele>
        <time>2021-06-15T14:07:01Z</time>
      </trkpt>
      <trkpt lat="45.41059" lon="4.23308">
        <ele>605.6</ele>
        <time>2021-06-15T14:07:02Z</time>
      </trkpt>
      <trkpt lat="45.41057" lon="4.2331">
        <ele>605.2</ele>
        <time>2021-06-15T14:07:03Z</time>
      </trkpt>
      <trkpt lat="45.41046" lon="4.23319">
        <ele>604.2</ele>
        <time>2021-06-15T14:07:07Z</time>
      </trkpt>
      <trkpt lat="45.41027" lon="4.23331">
        <ele>604.4</ele>
        <time>2021-06-15T14:07:13Z</time>
      </trkpt>
      <trkpt lat="45.41016" lon="4.23337">
        <ele>605.4</ele>
        <time>2021-06-15T14:07:17Z</time>
      </trkpt>
      <trkpt lat="45.41011" lon="4.23342">
        <ele>605.8</ele>
        <time>2021-06-15T14:07:19Z</time>
      </trkpt>
      <trkpt lat="45.41002" lon="4.23349">
        <ele>606.4</ele>
        <time>2021-06-15T14:07:23Z</time>
      </trkpt>
      <trkpt lat="45.40969" lon="4.23382">
        <ele>605</ele>
        <time>2021-06-15T14:07:31Z</time>
      </trkpt>
      <trkpt lat="45.40956" lon="4.23391">
        <ele>604</ele>
        <time>2021-06-15T14:07:33Z</time>
      </trkpt>
      <trkpt lat="45.40949" lon="4.23396">
        <ele>603.6</ele>
        <time>2021-06-15T14:07:34Z</time>
      </trkpt>
      <trkpt lat="45.40928" lon="4.23417">
        <ele>602.2</ele>
        <time>2021-06-15T14:07:37Z</time>
      </trkpt>
      <trkpt lat="45.40916" lon="4.23429">
        <ele>600.8</ele>
        <time>2021-06-15T14:07:39Z</time>
      </trkpt>
      <trkpt lat="45.409" lon="4.23439">
        <ele>599.6</ele>
        <time>2021-06-15T14:07:42Z</time>
      </trkpt>
      <trkpt lat="45.40897" lon="4.23442">
        <ele>599</ele>
        <time>2021-06-15T14:07:43Z</time>
      </trkpt>
      <trkpt lat="45.40895" lon="4.23444">
        <ele>598.4</ele>
        <time>2021-06-15T14:07:44Z</time>
      </trkpt>
      <trkpt lat="45.40888" lon="4.23444">
        <ele>597</ele>
        <time>2021-06-15T14:07:46Z</time>
      </trkpt>
      <trkpt lat="45.40882" lon="4.23448">
        <ele>596</ele>
        <time>2021-06-15T14:07:48Z</time>
      </trkpt>
      <trkpt lat="45.40856" lon="4.23455">
        <ele>595.4</ele>
        <time>2021-06-15T14:07:52Z</time>
      </trkpt>
      <trkpt lat="45.40849" lon="4.23458">
        <ele>595.2</ele>
        <time>2021-06-15T14:07:53Z</time>
      </trkpt>
      <trkpt lat="45.40844" lon="4.23462">
        <ele>595</ele>
        <time>2021-06-15T14:07:54Z</time>
      </trkpt>
      <trkpt lat="45.40827" lon="4.23477">
        <ele>594.4</ele>
        <time>2021-06-15T14:07:57Z</time>
      </trkpt>
      <trkpt lat="45.40815" lon="4.23486">
        <ele>594</ele>
        <time>2021-06-15T14:07:59Z</time>
      </trkpt>
      <trkpt lat="45.4081" lon="4.2349">
        <ele>593.8</ele>
        <time>2021-06-15T14:08:00Z</time>
      </trkpt>
      <trkpt lat="45.40794" lon="4.23501">
        <ele>593.6</ele>
        <time>2021-06-15T14:08:03Z</time>
      </trkpt>
      <trkpt lat="45.4077" lon="4.23528">
        <ele>593.6</ele>
        <time>2021-06-15T14:08:08Z</time>
      </trkpt>
      <trkpt lat="45.40762" lon="4.23545">
        <ele>593.4</ele>
        <time>2021-06-15T14:08:10Z</time>
      </trkpt>
      <trkpt lat="45.40748" lon="4.23572">
        <ele>592.6</ele>
        <time>2021-06-15T14:08:13Z</time>
      </trkpt>
      <trkpt lat="45.40744" lon="4.2358">
        <ele>592.4</ele>
        <time>2021-06-15T14:08:14Z</time>
      </trkpt>
      <trkpt lat="45.4073" lon="4.23605">
        <ele>591.6</ele>
        <time>2021-06-15T14:08:17Z</time>
      </trkpt>
      <trkpt lat="45.40723" lon="4.23613">
        <ele>590.4</ele>
        <time>2021-06-15T14:08:20Z</time>
      </trkpt>
      <trkpt lat="45.40716" lon="4.23616">
        <ele>589.2</ele>
        <time>2021-06-15T14:08:23Z</time>
      </trkpt>
      <trkpt lat="45.40714" lon="4.2362">
        <ele>587.4</ele>
        <time>2021-06-15T14:08:25Z</time>
      </trkpt>
      <trkpt lat="45.40712" lon="4.23626">
        <ele>585.8</ele>
        <time>2021-06-15T14:08:27Z</time>
      </trkpt>
      <trkpt lat="45.4071" lon="4.23634">
        <ele>584</ele>
        <time>2021-06-15T14:08:29Z</time>
      </trkpt>
      <trkpt lat="45.4071" lon="4.23639">
        <ele>582.8</ele>
        <time>2021-06-15T14:08:30Z</time>
      </trkpt>
      <trkpt lat="45.4071" lon="4.23643">
        <ele>581.8</ele>
        <time>2021-06-15T14:08:31Z</time>
      </trkpt>
      <trkpt lat="45.4071" lon="4.2365">
        <ele>580.4</ele>
        <time>2021-06-15T14:08:33Z</time>
      </trkpt>
      <trkpt lat="45.40711" lon="4.23657">
        <ele>579</ele>
        <time>2021-06-15T14:08:35Z</time>
      </trkpt>
      <trkpt lat="45.40714" lon="4.23664">
        <ele>577</ele>
        <time>2021-06-15T14:08:37Z</time>
      </trkpt>
      <trkpt lat="45.40716" lon="4.23668">
        <ele>575.8</ele>
        <time>2021-06-15T14:08:38Z</time>
      </trkpt>
      <trkpt lat="45.40716" lon="4.23672">
        <ele>574.8</ele>
        <time>2021-06-15T14:08:39Z</time>
      </trkpt>
      <trkpt lat="45.40715" lon="4.23679">
        <ele>573.4</ele>
        <time>2021-06-15T14:08:41Z</time>
      </trkpt>
      <trkpt lat="45.40713" lon="4.23685">
        <ele>572.4</ele>
        <time>2021-06-15T14:08:43Z</time>
      </trkpt>
      <trkpt lat="45.40702" lon="4.23706">
        <ele>571.2</ele>
        <time>2021-06-15T14:08:48Z</time>
      </trkpt>
      <trkpt lat="45.40691" lon="4.2372">
        <ele>570</ele>
        <time>2021-06-15T14:08:53Z</time>
      </trkpt>
      <trkpt lat="45.40689" lon="4.2373">
        <ele>568.8</ele>
        <time>2021-06-15T14:08:56Z</time>
      </trkpt>
      <trkpt lat="45.40689" lon="4.23736">
        <ele>567.6</ele>
        <time>2021-06-15T14:08:57Z</time>
      </trkpt>
      <trkpt lat="45.40688" lon="4.23741">
        <ele>566</ele>
        <time>2021-06-15T14:08:58Z</time>
      </trkpt>
      <trkpt lat="45.40686" lon="4.23747">
        <ele>564.8</ele>
        <time>2021-06-15T14:08:59Z</time>
      </trkpt>
      <trkpt lat="45.40685" lon="4.23754">
        <ele>563.6</ele>
        <time>2021-06-15T14:09:01Z</time>
      </trkpt>
      <trkpt lat="45.40684" lon="4.23759">
        <ele>562.4</ele>
        <time>2021-06-15T14:09:03Z</time>
      </trkpt>
      <trkpt lat="45.40683" lon="4.23765">
        <ele>560.6</ele>
        <time>2021-06-15T14:09:05Z</time>
      </trkpt>
      <trkpt lat="45.40681" lon="4.23771">
        <ele>558.6</ele>
        <time>2021-06-15T14:09:07Z</time>
      </trkpt>
      <trkpt lat="45.40678" lon="4.23776">
        <ele>557.4</ele>
        <time>2021-06-15T14:09:09Z</time>
      </trkpt>
      <trkpt lat="45.40676" lon="4.23782">
        <ele>556.2</ele>
        <time>2021-06-15T14:09:11Z</time>
      </trkpt>
      <trkpt lat="45.40673" lon="4.23789">
        <ele>555</ele>
        <time>2021-06-15T14:09:13Z</time>
      </trkpt>
      <trkpt lat="45.40668" lon="4.23799">
        <ele>552.8</ele>
        <time>2021-06-15T14:09:15Z</time>
      </trkpt>
      <trkpt lat="45.40665" lon="4.23804">
        <ele>551.2</ele>
        <time>2021-06-15T14:09:16Z</time>
      </trkpt>
      <trkpt lat="45.40663" lon="4.2381">
        <ele>550.2</ele>
        <time>2021-06-15T14:09:17Z</time>
      </trkpt>
      <trkpt lat="45.40661" lon="4.23816">
        <ele>549.2</ele>
        <time>2021-06-15T14:09:18Z</time>
      </trkpt>
      <trkpt lat="45.40659" lon="4.23826">
        <ele>547</ele>
        <time>2021-06-15T14:09:20Z</time>
      </trkpt>
      <trkpt lat="45.40659" lon="4.23831">
        <ele>545.8</ele>
        <time>2021-06-15T14:09:21Z</time>
      </trkpt>
      <trkpt lat="45.40659" lon="4.23835">
        <ele>544.6</ele>
        <time>2021-06-15T14:09:22Z</time>
      </trkpt>
      <trkpt lat="45.40659" lon="4.2384">
        <ele>543.8</ele>
        <time>2021-06-15T14:09:23Z</time>
      </trkpt>
      <trkpt lat="45.40658" lon="4.23845">
        <ele>543.4</ele>
        <time>2021-06-15T14:09:24Z</time>
      </trkpt>
      <trkpt lat="45.40656" lon="4.23861">
        <ele>542</ele>
        <time>2021-06-15T14:09:28Z</time>
      </trkpt>
      <trkpt lat="45.40656" lon="4.23865">
        <ele>541.6</ele>
        <time>2021-06-15T14:09:29Z</time>
      </trkpt>
      <trkpt lat="45.40658" lon="4.23871">
        <ele>540.4</ele>
        <time>2021-06-15T14:09:31Z</time>
      </trkpt>
      <trkpt lat="45.40659" lon="4.2388">
        <ele>539.2</ele>
        <time>2021-06-15T14:09:33Z</time>
      </trkpt>
      <trkpt lat="45.40661" lon="4.23889">
        <ele>538</ele>
        <time>2021-06-15T14:09:35Z</time>
      </trkpt>
      <trkpt lat="45.40662" lon="4.23897">
        <ele>536.8</ele>
        <time>2021-06-15T14:09:37Z</time>
      </trkpt>
      <trkpt lat="45.4066" lon="4.23908">
        <ele>535.6</ele>
        <time>2021-06-15T14:09:39Z</time>
      </trkpt>
      <trkpt lat="45.40661" lon="4.23928">
        <ele>534.6</ele>
        <time>2021-06-15T14:09:43Z</time>
      </trkpt>
      <trkpt lat="45.40661" lon="4.23933">
        <ele>534.4</ele>
        <time>2021-06-15T14:09:44Z</time>
      </trkpt>
      <trkpt lat="45.40662" lon="4.23956">
        <ele>533</ele>
        <time>2021-06-15T14:09:48Z</time>
      </trkpt>
      <trkpt lat="45.40661" lon="4.23974">
        <ele>532</ele>
        <time>2021-06-15T14:09:53Z</time>
      </trkpt>
      <trkpt lat="45.40662" lon="4.2399">
        <ele>530.8</ele>
        <time>2021-06-15T14:10:00Z</time>
      </trkpt>
      <trkpt lat="45.40663" lon="4.23994">
        <ele>530.2</ele>
        <time>2021-06-15T14:10:02Z</time>
      </trkpt>
      <trkpt lat="45.40663" lon="4.23997">
        <ele>529.8</ele>
        <time>2021-06-15T14:10:03Z</time>
      </trkpt>
      <trkpt lat="45.40663" lon="4.24007">
        <ele>528.4</ele>
        <time>2021-06-15T14:10:06Z</time>
      </trkpt>
      <trkpt lat="45.40662" lon="4.2402">
        <ele>527.4</ele>
        <time>2021-06-15T14:10:09Z</time>
      </trkpt>
      <trkpt lat="45.40663" lon="4.24033">
        <ele>526.2</ele>
        <time>2021-06-15T14:10:12Z</time>
      </trkpt>
      <trkpt lat="45.40663" lon="4.24038">
        <ele>526</ele>
        <time>2021-06-15T14:10:13Z</time>
      </trkpt>
      <trkpt lat="45.40665" lon="4.24053">
        <ele>525</ele>
        <time>2021-06-15T14:10:17Z</time>
      </trkpt>
      <trkpt lat="45.40664" lon="4.24062">
        <ele>523.6</ele>
        <time>2021-06-15T14:10:19Z</time>
      </trkpt>
      <trkpt lat="45.40664" lon="4.24066">
        <ele>522.8</ele>
        <time>2021-06-15T14:10:20Z</time>
      </trkpt>
      <trkpt lat="45.40666" lon="4.24069">
        <ele>522</ele>
        <time>2021-06-15T14:10:21Z</time>
      </trkpt>
      <trkpt lat="45.40668" lon="4.24076">
        <ele>520.6</ele>
        <time>2021-06-15T14:10:23Z</time>
      </trkpt>
      <trkpt lat="45.40669" lon="4.24082">
        <ele>519.2</ele>
        <time>2021-06-15T14:10:25Z</time>
      </trkpt>
      <trkpt lat="45.40672" lon="4.24087">
        <ele>517.8</ele>
        <time>2021-06-15T14:10:27Z</time>
      </trkpt>
      <trkpt lat="45.40675" lon="4.24091">
        <ele>517</ele>
        <time>2021-06-15T14:10:29Z</time>
      </trkpt>
      <trkpt lat="45.40675" lon="4.24095">
        <ele>516.4</ele>
        <time>2021-06-15T14:10:30Z</time>
      </trkpt>
      <trkpt lat="45.40675" lon="4.24097">
        <ele>515.8</ele>
        <time>2021-06-15T14:10:31Z</time>
      </trkpt>
      <trkpt lat="45.40675" lon="4.241">
        <ele>515</ele>
        <time>2021-06-15T14:10:32Z</time>
      </trkpt>
      <trkpt lat="45.40675" lon="4.24103">
        <ele>514.6</ele>
        <time>2021-06-15T14:10:33Z</time>
      </trkpt>
      <trkpt lat="45.40678" lon="4.24107">
        <ele>513.4</ele>
        <time>2021-06-15T14:10:35Z</time>
      </trkpt>
      <trkpt lat="45.40681" lon="4.24113">
        <ele>512.4</ele>
        <time>2021-06-15T14:10:37Z</time>
      </trkpt>
      <trkpt lat="45.40683" lon="4.24118">
        <ele>511.2</ele>
        <time>2021-06-15T14:10:39Z</time>
      </trkpt>
      <trkpt lat="45.40684" lon="4.24121">
        <ele>510.8</ele>
        <time>2021-06-15T14:10:40Z</time>
      </trkpt>
      <trkpt lat="45.40684" lon="4.24129">
        <ele>509.6</ele>
        <time>2021-06-15T14:10:42Z</time>
      </trkpt>
      <trkpt lat="45.40685" lon="4.24133">
        <ele>508.6</ele>
        <time>2021-06-15T14:10:43Z</time>
      </trkpt>
      <trkpt lat="45.40684" lon="4.24137">
        <ele>507.8</ele>
        <time>2021-06-15T14:10:44Z</time>
      </trkpt>
      <trkpt lat="45.40683" lon="4.24144">
        <ele>506.4</ele>
        <time>2021-06-15T14:10:46Z</time>
      </trkpt>
      <trkpt lat="45.40683" lon="4.24147">
        <ele>506</ele>
        <time>2021-06-15T14:10:47Z</time>
      </trkpt>
      <trkpt lat="45.40685" lon="4.24151">
        <ele>505.4</ele>
        <time>2021-06-15T14:10:48Z</time>
      </trkpt>
      <trkpt lat="45.40686" lon="4.24157">
        <ele>503.8</ele>
        <time>2021-06-15T14:10:50Z</time>
      </trkpt>
      <trkpt lat="45.40688" lon="4.24173">
        <ele>502.8</ele>
        <time>2021-06-15T14:10:53Z</time>
      </trkpt>
      <trkpt lat="45.40692" lon="4.24184">
        <ele>501.6</ele>
        <time>2021-06-15T14:10:55Z</time>
      </trkpt>
      <trkpt lat="45.40698" lon="4.2419">
        <ele>499.8</ele>
        <time>2021-06-15T14:10:57Z</time>
      </trkpt>
      <trkpt lat="45.40704" lon="4.24199">
        <ele>498.8</ele>
        <time>2021-06-15T14:10:59Z</time>
      </trkpt>
      <trkpt lat="45.40707" lon="4.24208">
        <ele>497.8</ele>
        <time>2021-06-15T14:11:01Z</time>
      </trkpt>
      <trkpt lat="45.40713" lon="4.24215">
        <ele>497</ele>
        <time>2021-06-15T14:11:03Z</time>
      </trkpt>
      <trkpt lat="45.40717" lon="4.24222">
        <ele>496.8</ele>
        <time>2021-06-15T14:11:05Z</time>
      </trkpt>
      <trkpt lat="45.40718" lon="4.24228">
        <ele>495.8</ele>
        <time>2021-06-15T14:11:10Z</time>
      </trkpt>
      <trkpt lat="45.40718" lon="4.24228">
        <ele>495.4</ele>
        <time>2021-06-15T14:11:13Z</time>
      </trkpt>
      <trkpt lat="45.40719" lon="4.24235">
        <ele>495.6</ele>
        <time>2021-06-15T14:11:18Z</time>
      </trkpt>
      <trkpt lat="45.40721" lon="4.24239">
        <ele>494.6</ele>
        <time>2021-06-15T14:11:21Z</time>
      </trkpt>
      <trkpt lat="45.40724" lon="4.24244">
        <ele>493.8</ele>
        <time>2021-06-15T14:11:23Z</time>
      </trkpt>
      <trkpt lat="45.40726" lon="4.24247">
        <ele>493.4</ele>
        <time>2021-06-15T14:11:24Z</time>
      </trkpt>
      <trkpt lat="45.40728" lon="4.24255">
        <ele>492</ele>
        <time>2021-06-15T14:11:27Z</time>
      </trkpt>
      <trkpt lat="45.40731" lon="4.24261">
        <ele>490.8</ele>
        <time>2021-06-15T14:11:30Z</time>
      </trkpt>
      <trkpt lat="45.40735" lon="4.24267">
        <ele>489.4</ele>
        <time>2021-06-15T14:11:33Z</time>
      </trkpt>
      <trkpt lat="45.40735" lon="4.24273">
        <ele>488</ele>
        <time>2021-06-15T14:11:35Z</time>
      </trkpt>
      <trkpt lat="45.40736" lon="4.24277">
        <ele>487</ele>
        <time>2021-06-15T14:11:37Z</time>
      </trkpt>
      <trkpt lat="45.40741" lon="4.24287">
        <ele>485.4</ele>
        <time>2021-06-15T14:11:40Z</time>
      </trkpt>
      <trkpt lat="45.40742" lon="4.24292">
        <ele>483.8</ele>
        <time>2021-06-15T14:11:42Z</time>
      </trkpt>
      <trkpt lat="45.40743" lon="4.24294">
        <ele>483</ele>
        <time>2021-06-15T14:11:43Z</time>
      </trkpt>
      <trkpt lat="45.40744" lon="4.24296">
        <ele>482.4</ele>
        <time>2021-06-15T14:11:44Z</time>
      </trkpt>
      <trkpt lat="45.40748" lon="4.24302">
        <ele>481.8</ele>
        <time>2021-06-15T14:11:46Z</time>
      </trkpt>
      <trkpt lat="45.40749" lon="4.24305">
        <ele>481.4</ele>
        <time>2021-06-15T14:11:47Z</time>
      </trkpt>
      <trkpt lat="45.40751" lon="4.24311">
        <ele>480.4</ele>
        <time>2021-06-15T14:11:50Z</time>
      </trkpt>
      <trkpt lat="45.40753" lon="4.24316">
        <ele>480</ele>
        <time>2021-06-15T14:11:53Z</time>
      </trkpt>
      <trkpt lat="45.40753" lon="4.24317">
        <ele>479.2</ele>
        <time>2021-06-15T14:11:57Z</time>
      </trkpt>
      <trkpt lat="45.40754" lon="4.24317">
        <ele>479</ele>
        <time>2021-06-15T14:12:02Z</time>
      </trkpt>
      <trkpt lat="45.40754" lon="4.24317">
        <ele>479</ele>
        <time>2021-06-15T14:12:03Z</time>
      </trkpt>
      <trkpt lat="45.40754" lon="4.24317">
        <ele>479</ele>
        <time>2021-06-15T14:12:13Z</time>
      </trkpt>
      <trkpt lat="45.40754" lon="4.24317">
        <ele>479</ele>
        <time>2021-06-15T14:12:15Z</time>
      </trkpt>
      <trkpt lat="45.40753" lon="4.24317">
        <ele>478.8</ele>
        <time>2021-06-15T14:12:16Z</time>
      </trkpt>
      <trkpt lat="45.40753" lon="4.24317">
        <ele>478.8</ele>
        <time>2021-06-15T14:12:18Z</time>
      </trkpt>
      <trkpt lat="45.40753" lon="4.24318">
        <ele>478.6</ele>
        <time>2021-06-15T14:12:22Z</time>
      </trkpt>
      <trkpt lat="45.40753" lon="4.24318">
        <ele>478.6</ele>
        <time>2021-06-15T14:12:23Z</time>
      </trkpt>
      <trkpt lat="45.40752" lon="4.24314">
        <ele>478.8</ele>
        <time>2021-06-15T14:12:33Z</time>
      </trkpt>
      <trkpt lat="45.40751" lon="4.24316">
        <ele>478.8</ele>
        <time>2021-06-15T14:12:40Z</time>
      </trkpt>
      <trkpt lat="45.40751" lon="4.24316">
        <ele>479</ele>
        <time>2021-06-15T14:12:43Z</time>
      </trkpt>
      <trkpt lat="45.40752" lon="4.24316">
        <ele>479</ele>
        <time>2021-06-15T14:12:45Z</time>
      </trkpt>
      <trkpt lat="45.40752" lon="4.24315">
        <ele>478.8</ele>
        <time>2021-06-15T14:12:51Z</time>
      </trkpt>
      <trkpt lat="45.40752" lon="4.24315">
        <ele>479</ele>
        <time>2021-06-15T14:12:53Z</time>
      </trkpt>
      <trkpt lat="45.4075" lon="4.24311">
        <ele>479.8</ele>
        <time>2021-06-15T14:13:03Z</time>
      </trkpt>
      <trkpt lat="45.4075" lon="4.24315">
        <ele>479.4</ele>
        <time>2021-06-15T14:13:12Z</time>
      </trkpt>
      <trkpt lat="45.40751" lon="4.24316">
        <ele>479.2</ele>
        <time>2021-06-15T14:13:13Z</time>
      </trkpt>
      <trkpt lat="45.40752" lon="4.24317">
        <ele>478.8</ele>
        <time>2021-06-15T14:13:15Z</time>
      </trkpt>
      <trkpt lat="45.40754" lon="4.24322">
        <ele>478.4</ele>
        <time>2021-06-15T14:13:19Z</time>
      </trkpt>
      <trkpt lat="45.40756" lon="4.24327">
        <ele>478</ele>
        <time>2021-06-15T14:13:21Z</time>
      </trkpt>
      <trkpt lat="45.40757" lon="4.24331">
        <ele>477</ele>
        <time>2021-06-15T14:13:23Z</time>
      </trkpt>
      <trkpt lat="45.40758" lon="4.24332">
        <ele>476.6</ele>
        <time>2021-06-15T14:13:24Z</time>
      </trkpt>
      <trkpt lat="45.40759" lon="4.24335">
        <ele>475.4</ele>
        <time>2021-06-15T14:13:26Z</time>
      </trkpt>
      <trkpt lat="45.40761" lon="4.24339">
        <ele>474.2</ele>
        <time>2021-06-15T14:13:28Z</time>
      </trkpt>
      <trkpt lat="45.40761" lon="4.24349">
        <ele>473.2</ele>
        <time>2021-06-15T14:13:33Z</time>
      </trkpt>
      <trkpt lat="45.40761" lon="4.24353">
        <ele>472</ele>
        <time>2021-06-15T14:13:37Z</time>
      </trkpt>
      <trkpt lat="45.40763" lon="4.24357">
        <ele>471.2</ele>
        <time>2021-06-15T14:13:43Z</time>
      </trkpt>
      <trkpt lat="45.40764" lon="4.24357">
        <ele>471</ele>
        <time>2021-06-15T14:13:44Z</time>
      </trkpt>
      <trkpt lat="45.40767" lon="4.24355">
        <ele>470.2</ele>
        <time>2021-06-15T14:13:47Z</time>
      </trkpt>
      <trkpt lat="45.40768" lon="4.24353">
        <ele>469.8</ele>
        <time>2021-06-15T14:13:48Z</time>
      </trkpt>
    </trkseg>
  </trk>
</gpx>